<?xml version="1.0" encoding="UTF-8" standalone="no" ?>
<gpx xmlns="http://www.topografix.com/GPX/1/1" xmlns:xsi="http://www.w3.org/2001/XMLSchema-instance" xsi:schemaLocation="http://www.topografix.com/GPX/1/1 http://www.topografix.com/GPX/1/1/gpx.xsd" version="1.1" creator="VisuGPX - https://www.visugpx.com">
  <metadata>
    <name>Morbier par routhennes</name>
    <desc><![CDATA[itineraire classique a faire quand bcp de neige ou menteau pas stable]]></desc>
  </metadata>
  <trk>
    <name><![CDATA[morbier tout pourri]]></name>
    <desc><![CDATA[tout pourri, neige, pluie, et neige dure et glacé]]></desc>
    <trkseg>
      <trkpt lat="45.59408" lon="6.13628">
        <ele>870.59997558594</ele>
        <time>2012-01-24T14:55:07.000Z</time>
      </trkpt>
      <trkpt lat="45.59407" lon="6.13628">
        <ele>870.59997558594</ele>
        <time>2012-01-24T14:55:08.000Z</time>
      </trkpt>
      <trkpt lat="45.59398" lon="6.13623">
        <ele>872</ele>
        <time>2012-01-24T14:55:14.000Z</time>
      </trkpt>
      <trkpt lat="45.59396" lon="6.13623">
        <ele>872</ele>
        <time>2012-01-24T14:55:15.000Z</time>
      </trkpt>
      <trkpt lat="45.59387" lon="6.13619">
        <ele>873.40002441406</ele>
        <time>2012-01-24T14:55:21.000Z</time>
      </trkpt>
      <trkpt lat="45.59377" lon="6.13612">
        <ele>873</ele>
        <time>2012-01-24T14:55:28.000Z</time>
      </trkpt>
      <trkpt lat="45.59371" lon="6.13607">
        <ele>873.40002441406</ele>
        <time>2012-01-24T14:55:33.000Z</time>
      </trkpt>
      <trkpt lat="45.59365" lon="6.13604">
        <ele>874.40002441406</ele>
        <time>2012-01-24T14:55:37.000Z</time>
      </trkpt>
      <trkpt lat="45.59356" lon="6.13596">
        <ele>874.79998779297</ele>
        <time>2012-01-24T14:55:44.000Z</time>
      </trkpt>
      <trkpt lat="45.5935" lon="6.1359">
        <ele>875.79998779297</ele>
        <time>2012-01-24T14:55:50.000Z</time>
      </trkpt>
      <trkpt lat="45.59344" lon="6.13584">
        <ele>876.79998779297</ele>
        <time>2012-01-24T14:55:56.000Z</time>
      </trkpt>
      <trkpt lat="45.59337" lon="6.13577">
        <ele>878.59997558594</ele>
        <time>2012-01-24T14:56:03.000Z</time>
      </trkpt>
      <trkpt lat="45.59331" lon="6.13572">
        <ele>880.59997558594</ele>
        <time>2012-01-24T14:56:09.000Z</time>
      </trkpt>
      <trkpt lat="45.59325" lon="6.13566">
        <ele>884</ele>
        <time>2012-01-24T14:56:16.000Z</time>
      </trkpt>
      <trkpt lat="45.5932" lon="6.13561">
        <ele>885.40002441406</ele>
        <time>2012-01-24T14:56:22.000Z</time>
      </trkpt>
      <trkpt lat="45.59317" lon="6.13555">
        <ele>885.79998779297</ele>
        <time>2012-01-24T14:56:27.000Z</time>
      </trkpt>
      <trkpt lat="45.59312" lon="6.1355">
        <ele>888.20001220703</ele>
        <time>2012-01-24T14:56:33.000Z</time>
      </trkpt>
      <trkpt lat="45.59308" lon="6.13545">
        <ele>890.59997558594</ele>
        <time>2012-01-24T14:56:38.000Z</time>
      </trkpt>
      <trkpt lat="45.59304" lon="6.13537">
        <ele>891.20001220703</ele>
        <time>2012-01-24T14:56:44.000Z</time>
      </trkpt>
      <trkpt lat="45.59302" lon="6.13531">
        <ele>891.59997558594</ele>
        <time>2012-01-24T14:56:49.000Z</time>
      </trkpt>
      <trkpt lat="45.59298" lon="6.13522">
        <ele>892.20001220703</ele>
        <time>2012-01-24T14:56:55.000Z</time>
      </trkpt>
      <trkpt lat="45.59295" lon="6.13515">
        <ele>893.20001220703</ele>
        <time>2012-01-24T14:57:01.000Z</time>
      </trkpt>
      <trkpt lat="45.59291" lon="6.13505">
        <ele>893.59997558594</ele>
        <time>2012-01-24T14:57:07.000Z</time>
      </trkpt>
      <trkpt lat="45.59288" lon="6.13497">
        <ele>895.59997558594</ele>
        <time>2012-01-24T14:57:12.000Z</time>
      </trkpt>
      <trkpt lat="45.59286" lon="6.1349">
        <ele>897.40002441406</ele>
        <time>2012-01-24T14:57:18.000Z</time>
      </trkpt>
      <trkpt lat="45.59284" lon="6.13482">
        <ele>898.79998779297</ele>
        <time>2012-01-24T14:57:23.000Z</time>
      </trkpt>
      <trkpt lat="45.59283" lon="6.13473">
        <ele>898.40002441406</ele>
        <time>2012-01-24T14:57:28.000Z</time>
      </trkpt>
      <trkpt lat="45.59283" lon="6.13471">
        <ele>899.40002441406</ele>
        <time>2012-01-24T14:57:29.000Z</time>
      </trkpt>
      <trkpt lat="45.59284" lon="6.13461">
        <ele>898</ele>
        <time>2012-01-24T14:57:35.000Z</time>
      </trkpt>
      <trkpt lat="45.59284" lon="6.13457">
        <ele>898</ele>
        <time>2012-01-24T14:57:37.000Z</time>
      </trkpt>
      <trkpt lat="45.59286" lon="6.13446">
        <ele>897.40002441406</ele>
        <time>2012-01-24T14:57:44.000Z</time>
      </trkpt>
      <trkpt lat="45.59287" lon="6.13442">
        <ele>898.40002441406</ele>
        <time>2012-01-24T14:57:47.000Z</time>
      </trkpt>
      <trkpt lat="45.5929" lon="6.13432">
        <ele>900.40002441406</ele>
        <time>2012-01-24T14:57:54.000Z</time>
      </trkpt>
      <trkpt lat="45.59291" lon="6.13427">
        <ele>900.40002441406</ele>
        <time>2012-01-24T14:57:57.000Z</time>
      </trkpt>
      <trkpt lat="45.59292" lon="6.13413">
        <ele>902.79998779297</ele>
        <time>2012-01-24T14:58:05.000Z</time>
      </trkpt>
      <trkpt lat="45.59292" lon="6.13404">
        <ele>903.59997558594</ele>
        <time>2012-01-24T14:58:10.000Z</time>
      </trkpt>
      <trkpt lat="45.59293" lon="6.134">
        <ele>904.20001220703</ele>
        <time>2012-01-24T14:58:13.000Z</time>
      </trkpt>
      <trkpt lat="45.59293" lon="6.13388">
        <ele>905.59997558594</ele>
        <time>2012-01-24T14:58:20.000Z</time>
      </trkpt>
      <trkpt lat="45.59294" lon="6.1338">
        <ele>908</ele>
        <time>2012-01-24T14:58:26.000Z</time>
      </trkpt>
      <trkpt lat="45.59295" lon="6.13372">
        <ele>909.40002441406</ele>
        <time>2012-01-24T14:58:31.000Z</time>
      </trkpt>
      <trkpt lat="45.59296" lon="6.13364">
        <ele>910.79998779297</ele>
        <time>2012-01-24T14:58:37.000Z</time>
      </trkpt>
      <trkpt lat="45.59297" lon="6.13355">
        <ele>912.40002441406</ele>
        <time>2012-01-24T14:58:44.000Z</time>
      </trkpt>
      <trkpt lat="45.59298" lon="6.13348">
        <ele>912.79998779297</ele>
        <time>2012-01-24T14:58:49.000Z</time>
      </trkpt>
      <trkpt lat="45.59298" lon="6.13339">
        <ele>914.79998779297</ele>
        <time>2012-01-24T14:58:57.000Z</time>
      </trkpt>
      <trkpt lat="45.59296" lon="6.13336">
        <ele>914.79998779297</ele>
        <time>2012-01-24T14:59:02.000Z</time>
      </trkpt>
      <trkpt lat="45.59295" lon="6.1333">
        <ele>915.20001220703</ele>
        <time>2012-01-24T14:59:07.000Z</time>
      </trkpt>
      <trkpt lat="45.59298" lon="6.13323">
        <ele>915.59997558594</ele>
        <time>2012-01-24T14:59:13.000Z</time>
      </trkpt>
      <trkpt lat="45.59299" lon="6.13321">
        <ele>915.59997558594</ele>
        <time>2012-01-24T14:59:15.000Z</time>
      </trkpt>
      <trkpt lat="45.59305" lon="6.1331">
        <ele>915.59997558594</ele>
        <time>2012-01-24T14:59:23.000Z</time>
      </trkpt>
      <trkpt lat="45.59305" lon="6.13306">
        <ele>916.20001220703</ele>
        <time>2012-01-24T14:59:26.000Z</time>
      </trkpt>
      <trkpt lat="45.59307" lon="6.13298">
        <ele>917.20001220703</ele>
        <time>2012-01-24T14:59:31.000Z</time>
      </trkpt>
      <trkpt lat="45.59307" lon="6.13286">
        <ele>917.59997558594</ele>
        <time>2012-01-24T14:59:38.000Z</time>
      </trkpt>
      <trkpt lat="45.59307" lon="6.13279">
        <ele>918</ele>
        <time>2012-01-24T14:59:43.000Z</time>
      </trkpt>
      <trkpt lat="45.59305" lon="6.1327">
        <ele>920.40002441406</ele>
        <time>2012-01-24T14:59:49.000Z</time>
      </trkpt>
      <trkpt lat="45.59304" lon="6.13264">
        <ele>922.40002441406</ele>
        <time>2012-01-24T14:59:53.000Z</time>
      </trkpt>
      <trkpt lat="45.59301" lon="6.13256">
        <ele>923.79998779297</ele>
        <time>2012-01-24T14:59:59.000Z</time>
      </trkpt>
      <trkpt lat="45.59295" lon="6.13249">
        <ele>928.59997558594</ele>
        <time>2012-01-24T15:00:06.000Z</time>
      </trkpt>
      <trkpt lat="45.59294" lon="6.13248">
        <ele>929.20001220703</ele>
        <time>2012-01-24T15:00:07.000Z</time>
      </trkpt>
      <trkpt lat="45.59292" lon="6.13243">
        <ele>929.59997558594</ele>
        <time>2012-01-24T15:00:11.000Z</time>
      </trkpt>
      <trkpt lat="45.59288" lon="6.13232">
        <ele>933</ele>
        <time>2012-01-24T15:00:20.000Z</time>
      </trkpt>
      <trkpt lat="45.59286" lon="6.13223">
        <ele>934</ele>
        <time>2012-01-24T15:00:26.000Z</time>
      </trkpt>
      <trkpt lat="45.59283" lon="6.13214">
        <ele>935</ele>
        <time>2012-01-24T15:00:33.000Z</time>
      </trkpt>
      <trkpt lat="45.59279" lon="6.13208">
        <ele>937.79998779297</ele>
        <time>2012-01-24T15:00:38.000Z</time>
      </trkpt>
      <trkpt lat="45.59274" lon="6.13202">
        <ele>940.20001220703</ele>
        <time>2012-01-24T15:00:44.000Z</time>
      </trkpt>
      <trkpt lat="45.59271" lon="6.13198">
        <ele>941.20001220703</ele>
        <time>2012-01-24T15:00:48.000Z</time>
      </trkpt>
      <trkpt lat="45.59268" lon="6.13193">
        <ele>942.20001220703</ele>
        <time>2012-01-24T15:00:52.000Z</time>
      </trkpt>
      <trkpt lat="45.59264" lon="6.13186">
        <ele>943.59997558594</ele>
        <time>2012-01-24T15:00:59.000Z</time>
      </trkpt>
      <trkpt lat="45.59262" lon="6.13178">
        <ele>944</ele>
        <time>2012-01-24T15:01:05.000Z</time>
      </trkpt>
      <trkpt lat="45.59259" lon="6.13172">
        <ele>946.40002441406</ele>
        <time>2012-01-24T15:01:11.000Z</time>
      </trkpt>
      <trkpt lat="45.59258" lon="6.13171">
        <ele>946.40002441406</ele>
        <time>2012-01-24T15:01:12.000Z</time>
      </trkpt>
      <trkpt lat="45.59248" lon="6.13167">
        <ele>948.79998779297</ele>
        <time>2012-01-24T15:01:20.000Z</time>
      </trkpt>
      <trkpt lat="45.59241" lon="6.13164">
        <ele>949.79998779297</ele>
        <time>2012-01-24T15:01:26.000Z</time>
      </trkpt>
      <trkpt lat="45.59233" lon="6.13162">
        <ele>951.20001220703</ele>
        <time>2012-01-24T15:01:32.000Z</time>
      </trkpt>
      <trkpt lat="45.59225" lon="6.13159">
        <ele>951.20001220703</ele>
        <time>2012-01-24T15:01:39.000Z</time>
      </trkpt>
      <trkpt lat="45.59216" lon="6.13157">
        <ele>952.20001220703</ele>
        <time>2012-01-24T15:01:47.000Z</time>
      </trkpt>
      <trkpt lat="45.59208" lon="6.13155">
        <ele>953.59997558594</ele>
        <time>2012-01-24T15:01:54.000Z</time>
      </trkpt>
      <trkpt lat="45.59205" lon="6.13154">
        <ele>954.20001220703</ele>
        <time>2012-01-24T15:01:57.000Z</time>
      </trkpt>
      <trkpt lat="45.59201" lon="6.13149">
        <ele>955.20001220703</ele>
        <time>2012-01-24T15:02:02.000Z</time>
      </trkpt>
      <trkpt lat="45.59199" lon="6.13141">
        <ele>956</ele>
        <time>2012-01-24T15:02:09.000Z</time>
      </trkpt>
      <trkpt lat="45.59196" lon="6.13132">
        <ele>959</ele>
        <time>2012-01-24T15:02:16.000Z</time>
      </trkpt>
      <trkpt lat="45.59195" lon="6.13126">
        <ele>959</ele>
        <time>2012-01-24T15:02:20.000Z</time>
      </trkpt>
      <trkpt lat="45.59193" lon="6.13118">
        <ele>961.79998779297</ele>
        <time>2012-01-24T15:02:26.000Z</time>
      </trkpt>
      <trkpt lat="45.59194" lon="6.13111">
        <ele>962.79998779297</ele>
        <time>2012-01-24T15:02:33.000Z</time>
      </trkpt>
      <trkpt lat="45.59195" lon="6.13104">
        <ele>961.79998779297</ele>
        <time>2012-01-24T15:02:38.000Z</time>
      </trkpt>
      <trkpt lat="45.59197" lon="6.13098">
        <ele>961.79998779297</ele>
        <time>2012-01-24T15:02:42.000Z</time>
      </trkpt>
      <trkpt lat="45.59199" lon="6.13089">
        <ele>960.79998779297</ele>
        <time>2012-01-24T15:02:47.000Z</time>
      </trkpt>
      <trkpt lat="45.59201" lon="6.13081">
        <ele>960.79998779297</ele>
        <time>2012-01-24T15:02:53.000Z</time>
      </trkpt>
      <trkpt lat="45.59203" lon="6.13072">
        <ele>960.79998779297</ele>
        <time>2012-01-24T15:03:01.000Z</time>
      </trkpt>
      <trkpt lat="45.59204" lon="6.13065">
        <ele>963.20001220703</ele>
        <time>2012-01-24T15:03:07.000Z</time>
      </trkpt>
      <trkpt lat="45.59205" lon="6.13058">
        <ele>962.79998779297</ele>
        <time>2012-01-24T15:03:13.000Z</time>
      </trkpt>
      <trkpt lat="45.59206" lon="6.13052">
        <ele>963.79998779297</ele>
        <time>2012-01-24T15:03:18.000Z</time>
      </trkpt>
      <trkpt lat="45.59206" lon="6.13046">
        <ele>965.59997558594</ele>
        <time>2012-01-24T15:03:23.000Z</time>
      </trkpt>
      <trkpt lat="45.59206" lon="6.13039">
        <ele>967.59997558594</ele>
        <time>2012-01-24T15:03:29.000Z</time>
      </trkpt>
      <trkpt lat="45.59207" lon="6.13032">
        <ele>969.59997558594</ele>
        <time>2012-01-24T15:03:35.000Z</time>
      </trkpt>
      <trkpt lat="45.59211" lon="6.13026">
        <ele>971.40002441406</ele>
        <time>2012-01-24T15:03:41.000Z</time>
      </trkpt>
      <trkpt lat="45.59213" lon="6.13022">
        <ele>972.79998779297</ele>
        <time>2012-01-24T15:03:46.000Z</time>
      </trkpt>
      <trkpt lat="45.59215" lon="6.13016">
        <ele>974.79998779297</ele>
        <time>2012-01-24T15:03:52.000Z</time>
      </trkpt>
      <trkpt lat="45.59217" lon="6.13012">
        <ele>976.79998779297</ele>
        <time>2012-01-24T15:03:56.000Z</time>
      </trkpt>
      <trkpt lat="45.59219" lon="6.13004">
        <ele>978.59997558594</ele>
        <time>2012-01-24T15:04:03.000Z</time>
      </trkpt>
      <trkpt lat="45.5922" lon="6.12997">
        <ele>981</ele>
        <time>2012-01-24T15:04:10.000Z</time>
      </trkpt>
      <trkpt lat="45.59219" lon="6.12989">
        <ele>984</ele>
        <time>2012-01-24T15:04:17.000Z</time>
      </trkpt>
      <trkpt lat="45.5922" lon="6.12983">
        <ele>985</ele>
        <time>2012-01-24T15:04:23.000Z</time>
      </trkpt>
      <trkpt lat="45.59222" lon="6.12975">
        <ele>984</ele>
        <time>2012-01-24T15:04:29.000Z</time>
      </trkpt>
      <trkpt lat="45.59222" lon="6.1297">
        <ele>986.79998779297</ele>
        <time>2012-01-24T15:04:35.000Z</time>
      </trkpt>
      <trkpt lat="45.59219" lon="6.12968">
        <ele>988.20001220703</ele>
        <time>2012-01-24T15:04:41.000Z</time>
      </trkpt>
      <trkpt lat="45.59221" lon="6.12965">
        <ele>990.59997558594</ele>
        <time>2012-01-24T15:04:45.000Z</time>
      </trkpt>
      <trkpt lat="45.59224" lon="6.12959">
        <ele>990.20001220703</ele>
        <time>2012-01-24T15:04:49.000Z</time>
      </trkpt>
      <trkpt lat="45.59226" lon="6.12956">
        <ele>989.79998779297</ele>
        <time>2012-01-24T15:04:51.000Z</time>
      </trkpt>
      <trkpt lat="45.59228" lon="6.12951">
        <ele>989.79998779297</ele>
        <time>2012-01-24T15:04:56.000Z</time>
      </trkpt>
      <trkpt lat="45.59229" lon="6.12948">
        <ele>990.59997558594</ele>
        <time>2012-01-24T15:04:58.000Z</time>
      </trkpt>
      <trkpt lat="45.5923" lon="6.12945">
        <ele>992.20001220703</ele>
        <time>2012-01-24T15:05:01.000Z</time>
      </trkpt>
      <trkpt lat="45.59231" lon="6.12939">
        <ele>992.59997558594</ele>
        <time>2012-01-24T15:05:04.000Z</time>
      </trkpt>
      <trkpt lat="45.59232" lon="6.12928">
        <ele>995.40002441406</ele>
        <time>2012-01-24T15:05:10.000Z</time>
      </trkpt>
      <trkpt lat="45.59232" lon="6.12922">
        <ele>996.40002441406</ele>
        <time>2012-01-24T15:05:13.000Z</time>
      </trkpt>
      <trkpt lat="45.59232" lon="6.12914">
        <ele>999.40002441406</ele>
        <time>2012-01-24T15:05:18.000Z</time>
      </trkpt>
      <trkpt lat="45.59233" lon="6.1291">
        <ele>1001.799987793</ele>
        <time>2012-01-24T15:05:21.000Z</time>
      </trkpt>
      <trkpt lat="45.59234" lon="6.12903">
        <ele>1003.200012207</ele>
        <time>2012-01-24T15:05:25.000Z</time>
      </trkpt>
      <trkpt lat="45.59235" lon="6.12899">
        <ele>1004.200012207</ele>
        <time>2012-01-24T15:05:29.000Z</time>
      </trkpt>
      <trkpt lat="45.59235" lon="6.12896">
        <ele>1003.5999755859</ele>
        <time>2012-01-24T15:05:32.000Z</time>
      </trkpt>
      <trkpt lat="45.59238" lon="6.1289">
        <ele>1005</ele>
        <time>2012-01-24T15:05:37.000Z</time>
      </trkpt>
      <trkpt lat="45.59241" lon="6.12879">
        <ele>1006</ele>
        <time>2012-01-24T15:05:44.000Z</time>
      </trkpt>
      <trkpt lat="45.59241" lon="6.12877">
        <ele>1006.5999755859</ele>
        <time>2012-01-24T15:05:45.000Z</time>
      </trkpt>
      <trkpt lat="45.59244" lon="6.12874">
        <ele>1008.4000244141</ele>
        <time>2012-01-24T15:05:49.000Z</time>
      </trkpt>
      <trkpt lat="45.59249" lon="6.12871">
        <ele>1010.4000244141</ele>
        <time>2012-01-24T15:05:54.000Z</time>
      </trkpt>
      <trkpt lat="45.59249" lon="6.12869">
        <ele>1010.4000244141</ele>
        <time>2012-01-24T15:05:55.000Z</time>
      </trkpt>
      <trkpt lat="45.59253" lon="6.12868">
        <ele>1014.799987793</ele>
        <time>2012-01-24T15:06:00.000Z</time>
      </trkpt>
      <trkpt lat="45.59255" lon="6.12867">
        <ele>1016.200012207</ele>
        <time>2012-01-24T15:06:03.000Z</time>
      </trkpt>
      <trkpt lat="45.59257" lon="6.12864">
        <ele>1016.5999755859</ele>
        <time>2012-01-24T15:06:07.000Z</time>
      </trkpt>
      <trkpt lat="45.59258" lon="6.12862">
        <ele>1018</ele>
        <time>2012-01-24T15:06:11.000Z</time>
      </trkpt>
      <trkpt lat="45.5926" lon="6.12859">
        <ele>1021.4000244141</ele>
        <time>2012-01-24T15:06:15.000Z</time>
      </trkpt>
      <trkpt lat="45.5926" lon="6.12859">
        <ele>1021</ele>
        <time>2012-01-24T15:06:22.000Z</time>
      </trkpt>
      <trkpt lat="45.59263" lon="6.12861">
        <ele>1022.4000244141</ele>
        <time>2012-01-24T15:06:26.000Z</time>
      </trkpt>
      <trkpt lat="45.59263" lon="6.12861">
        <ele>1022</ele>
        <time>2012-01-24T15:06:29.000Z</time>
      </trkpt>
      <trkpt lat="45.59261" lon="6.12856">
        <ele>1022.4000244141</ele>
        <time>2012-01-24T15:06:34.000Z</time>
      </trkpt>
      <trkpt lat="45.59257" lon="6.12848">
        <ele>1022.799987793</ele>
        <time>2012-01-24T15:06:39.000Z</time>
      </trkpt>
      <trkpt lat="45.59256" lon="6.12846">
        <ele>1024.4000244141</ele>
        <time>2012-01-24T15:06:41.000Z</time>
      </trkpt>
      <trkpt lat="45.59251" lon="6.12839">
        <ele>1025.8000488281</ele>
        <time>2012-01-24T15:06:48.000Z</time>
      </trkpt>
      <trkpt lat="45.59248" lon="6.12834">
        <ele>1027.1999511719</ele>
        <time>2012-01-24T15:06:53.000Z</time>
      </trkpt>
      <trkpt lat="45.59243" lon="6.12828">
        <ele>1028.1999511719</ele>
        <time>2012-01-24T15:06:59.000Z</time>
      </trkpt>
      <trkpt lat="45.59241" lon="6.12826">
        <ele>1029.1999511719</ele>
        <time>2012-01-24T15:07:01.000Z</time>
      </trkpt>
      <trkpt lat="45.5924" lon="6.12824">
        <ele>1029.1999511719</ele>
        <time>2012-01-24T15:07:03.000Z</time>
      </trkpt>
      <trkpt lat="45.59236" lon="6.12818">
        <ele>1030</ele>
        <time>2012-01-24T15:07:10.000Z</time>
      </trkpt>
      <trkpt lat="45.59232" lon="6.12816">
        <ele>1030</ele>
        <time>2012-01-24T15:07:15.000Z</time>
      </trkpt>
      <trkpt lat="45.59231" lon="6.12813">
        <ele>1030.5999755859</ele>
        <time>2012-01-24T15:07:19.000Z</time>
      </trkpt>
      <trkpt lat="45.59231" lon="6.12813">
        <ele>1030</ele>
        <time>2012-01-24T15:07:21.000Z</time>
      </trkpt>
      <trkpt lat="45.59235" lon="6.12807">
        <ele>1031</ele>
        <time>2012-01-24T15:07:26.000Z</time>
      </trkpt>
      <trkpt lat="45.59237" lon="6.12804">
        <ele>1031.5999755859</ele>
        <time>2012-01-24T15:07:29.000Z</time>
      </trkpt>
      <trkpt lat="45.59236" lon="6.12802">
        <ele>1032.4000244141</ele>
        <time>2012-01-24T15:07:36.000Z</time>
      </trkpt>
      <trkpt lat="45.59232" lon="6.12799">
        <ele>1033</ele>
        <time>2012-01-24T15:07:42.000Z</time>
      </trkpt>
      <trkpt lat="45.5923" lon="6.12797">
        <ele>1035.8000488281</ele>
        <time>2012-01-24T15:07:47.000Z</time>
      </trkpt>
      <trkpt lat="45.59232" lon="6.12793">
        <ele>1039.8000488281</ele>
        <time>2012-01-24T15:07:51.000Z</time>
      </trkpt>
      <trkpt lat="45.59234" lon="6.12788">
        <ele>1040.1999511719</ele>
        <time>2012-01-24T15:07:55.000Z</time>
      </trkpt>
      <trkpt lat="45.59234" lon="6.12787">
        <ele>1039.1999511719</ele>
        <time>2012-01-24T15:08:00.000Z</time>
      </trkpt>
      <trkpt lat="45.59234" lon="6.12787">
        <ele>1039.1999511719</ele>
        <time>2012-01-24T15:08:07.000Z</time>
      </trkpt>
      <trkpt lat="45.59231" lon="6.12788">
        <ele>1038.1999511719</ele>
        <time>2012-01-24T15:08:13.000Z</time>
      </trkpt>
      <trkpt lat="45.5923" lon="6.12788">
        <ele>1038.1999511719</ele>
        <time>2012-01-24T15:08:14.000Z</time>
      </trkpt>
      <trkpt lat="45.59225" lon="6.12787">
        <ele>1040.1999511719</ele>
        <time>2012-01-24T15:08:21.000Z</time>
      </trkpt>
      <trkpt lat="45.59226" lon="6.12787">
        <ele>1040.1999511719</ele>
        <time>2012-01-24T15:08:25.000Z</time>
      </trkpt>
      <trkpt lat="45.59226" lon="6.12784">
        <ele>1040.5999755859</ele>
        <time>2012-01-24T15:08:28.000Z</time>
      </trkpt>
      <trkpt lat="45.59227" lon="6.12782">
        <ele>1041.5999755859</ele>
        <time>2012-01-24T15:08:30.000Z</time>
      </trkpt>
      <trkpt lat="45.59229" lon="6.12779">
        <ele>1043.5999755859</ele>
        <time>2012-01-24T15:08:33.000Z</time>
      </trkpt>
      <trkpt lat="45.59233" lon="6.12774">
        <ele>1045</ele>
        <time>2012-01-24T15:08:37.000Z</time>
      </trkpt>
      <trkpt lat="45.59236" lon="6.12771">
        <ele>1046</ele>
        <time>2012-01-24T15:08:42.000Z</time>
      </trkpt>
      <trkpt lat="45.59236" lon="6.12769">
        <ele>1047.8000488281</ele>
        <time>2012-01-24T15:08:46.000Z</time>
      </trkpt>
      <trkpt lat="45.59233" lon="6.12766">
        <ele>1048.4000244141</ele>
        <time>2012-01-24T15:08:50.000Z</time>
      </trkpt>
      <trkpt lat="45.59228" lon="6.12765">
        <ele>1049.4000244141</ele>
        <time>2012-01-24T15:08:56.000Z</time>
      </trkpt>
      <trkpt lat="45.59223" lon="6.12764">
        <ele>1049.4000244141</ele>
        <time>2012-01-24T15:09:02.000Z</time>
      </trkpt>
      <trkpt lat="45.59219" lon="6.12764">
        <ele>1051.8000488281</ele>
        <time>2012-01-24T15:09:07.000Z</time>
      </trkpt>
      <trkpt lat="45.59218" lon="6.12761">
        <ele>1052.1999511719</ele>
        <time>2012-01-24T15:09:12.000Z</time>
      </trkpt>
      <trkpt lat="45.5922" lon="6.12757">
        <ele>1053.1999511719</ele>
        <time>2012-01-24T15:09:18.000Z</time>
      </trkpt>
      <trkpt lat="45.59222" lon="6.12751">
        <ele>1052.5999755859</ele>
        <time>2012-01-24T15:09:23.000Z</time>
      </trkpt>
      <trkpt lat="45.59224" lon="6.12747">
        <ele>1054.1999511719</ele>
        <time>2012-01-24T15:09:28.000Z</time>
      </trkpt>
      <trkpt lat="45.59224" lon="6.1274">
        <ele>1053.5999755859</ele>
        <time>2012-01-24T15:09:33.000Z</time>
      </trkpt>
      <trkpt lat="45.59225" lon="6.12735">
        <ele>1056</ele>
        <time>2012-01-24T15:09:38.000Z</time>
      </trkpt>
      <trkpt lat="45.59226" lon="6.1273">
        <ele>1059.8000488281</ele>
        <time>2012-01-24T15:09:43.000Z</time>
      </trkpt>
      <trkpt lat="45.59228" lon="6.12727">
        <ele>1061.8000488281</ele>
        <time>2012-01-24T15:09:46.000Z</time>
      </trkpt>
      <trkpt lat="45.59231" lon="6.12725">
        <ele>1064.1999511719</ele>
        <time>2012-01-24T15:09:50.000Z</time>
      </trkpt>
      <trkpt lat="45.59231" lon="6.12725">
        <ele>1064.1999511719</ele>
        <time>2012-01-24T15:09:58.000Z</time>
      </trkpt>
      <trkpt lat="45.59229" lon="6.12722">
        <ele>1065.1999511719</ele>
        <time>2012-01-24T15:10:01.000Z</time>
      </trkpt>
      <trkpt lat="45.59226" lon="6.12719">
        <ele>1066.5999755859</ele>
        <time>2012-01-24T15:10:06.000Z</time>
      </trkpt>
      <trkpt lat="45.59222" lon="6.12719">
        <ele>1069</ele>
        <time>2012-01-24T15:10:13.000Z</time>
      </trkpt>
      <trkpt lat="45.5922" lon="6.12718">
        <ele>1070</ele>
        <time>2012-01-24T15:10:18.000Z</time>
      </trkpt>
      <trkpt lat="45.5922" lon="6.12716">
        <ele>1070</ele>
        <time>2012-01-24T15:10:19.000Z</time>
      </trkpt>
      <trkpt lat="45.59224" lon="6.1271">
        <ele>1069.5999755859</ele>
        <time>2012-01-24T15:10:26.000Z</time>
      </trkpt>
      <trkpt lat="45.5923" lon="6.12705">
        <ele>1069</ele>
        <time>2012-01-24T15:10:33.000Z</time>
      </trkpt>
      <trkpt lat="45.59236" lon="6.12704">
        <ele>1069.5999755859</ele>
        <time>2012-01-24T15:10:39.000Z</time>
      </trkpt>
      <trkpt lat="45.59239" lon="6.12705">
        <ele>1071</ele>
        <time>2012-01-24T15:10:45.000Z</time>
      </trkpt>
      <trkpt lat="45.59237" lon="6.12701">
        <ele>1072</ele>
        <time>2012-01-24T15:10:49.000Z</time>
      </trkpt>
      <trkpt lat="45.59235" lon="6.12696">
        <ele>1073.4000244141</ele>
        <time>2012-01-24T15:10:54.000Z</time>
      </trkpt>
      <trkpt lat="45.59233" lon="6.12691">
        <ele>1074.8000488281</ele>
        <time>2012-01-24T15:11:00.000Z</time>
      </trkpt>
      <trkpt lat="45.59231" lon="6.12687">
        <ele>1076.8000488281</ele>
        <time>2012-01-24T15:11:05.000Z</time>
      </trkpt>
      <trkpt lat="45.59229" lon="6.12683">
        <ele>1078.5999755859</ele>
        <time>2012-01-24T15:11:10.000Z</time>
      </trkpt>
      <trkpt lat="45.5923" lon="6.1268">
        <ele>1079.5999755859</ele>
        <time>2012-01-24T15:11:14.000Z</time>
      </trkpt>
      <trkpt lat="45.59235" lon="6.1268">
        <ele>1083.4000244141</ele>
        <time>2012-01-24T15:11:19.000Z</time>
      </trkpt>
      <trkpt lat="45.59237" lon="6.12681">
        <ele>1084.4000244141</ele>
        <time>2012-01-24T15:11:24.000Z</time>
      </trkpt>
      <trkpt lat="45.59237" lon="6.1268">
        <ele>1084</ele>
        <time>2012-01-24T15:11:32.000Z</time>
      </trkpt>
      <trkpt lat="45.59241" lon="6.12682">
        <ele>1086.4000244141</ele>
        <time>2012-01-24T15:11:38.000Z</time>
      </trkpt>
      <trkpt lat="45.59241" lon="6.12681">
        <ele>1086.4000244141</ele>
        <time>2012-01-24T15:11:42.000Z</time>
      </trkpt>
      <trkpt lat="45.5924" lon="6.12677">
        <ele>1087.1999511719</ele>
        <time>2012-01-24T15:11:46.000Z</time>
      </trkpt>
      <trkpt lat="45.59238" lon="6.1267">
        <ele>1088.8000488281</ele>
        <time>2012-01-24T15:11:52.000Z</time>
      </trkpt>
      <trkpt lat="45.59235" lon="6.12663">
        <ele>1092</ele>
        <time>2012-01-24T15:11:58.000Z</time>
      </trkpt>
      <trkpt lat="45.59234" lon="6.12658">
        <ele>1093.5999755859</ele>
        <time>2012-01-24T15:12:03.000Z</time>
      </trkpt>
      <trkpt lat="45.59235" lon="6.12654">
        <ele>1094.4000244141</ele>
        <time>2012-01-24T15:12:08.000Z</time>
      </trkpt>
      <trkpt lat="45.59239" lon="6.12656">
        <ele>1096.4000244141</ele>
        <time>2012-01-24T15:12:13.000Z</time>
      </trkpt>
      <trkpt lat="45.59245" lon="6.12658">
        <ele>1099.8000488281</ele>
        <time>2012-01-24T15:12:19.000Z</time>
      </trkpt>
      <trkpt lat="45.59246" lon="6.12659">
        <ele>1099.8000488281</ele>
        <time>2012-01-24T15:12:20.000Z</time>
      </trkpt>
      <trkpt lat="45.5925" lon="6.12662">
        <ele>1101.8000488281</ele>
        <time>2012-01-24T15:12:24.000Z</time>
      </trkpt>
      <trkpt lat="45.59254" lon="6.12664">
        <ele>1103.5999755859</ele>
        <time>2012-01-24T15:12:28.000Z</time>
      </trkpt>
      <trkpt lat="45.59259" lon="6.12667">
        <ele>1104.5999755859</ele>
        <time>2012-01-24T15:12:35.000Z</time>
      </trkpt>
      <trkpt lat="45.59263" lon="6.12667">
        <ele>1105</ele>
        <time>2012-01-24T15:12:39.000Z</time>
      </trkpt>
      <trkpt lat="45.59266" lon="6.12664">
        <ele>1106.5999755859</ele>
        <time>2012-01-24T15:12:44.000Z</time>
      </trkpt>
      <trkpt lat="45.59266" lon="6.12661">
        <ele>1104.1999511719</ele>
        <time>2012-01-24T15:12:53.000Z</time>
      </trkpt>
      <trkpt lat="45.59268" lon="6.12657">
        <ele>1105</ele>
        <time>2012-01-24T15:12:58.000Z</time>
      </trkpt>
      <trkpt lat="45.59268" lon="6.12656">
        <ele>1105.5999755859</ele>
        <time>2012-01-24T15:13:02.000Z</time>
      </trkpt>
      <trkpt lat="45.59266" lon="6.12654">
        <ele>1106</ele>
        <time>2012-01-24T15:13:07.000Z</time>
      </trkpt>
      <trkpt lat="45.59264" lon="6.12649">
        <ele>1106.5999755859</ele>
        <time>2012-01-24T15:13:11.000Z</time>
      </trkpt>
      <trkpt lat="45.59267" lon="6.12646">
        <ele>1108</ele>
        <time>2012-01-24T15:13:16.000Z</time>
      </trkpt>
      <trkpt lat="45.5927" lon="6.12646">
        <ele>1107.4000244141</ele>
        <time>2012-01-24T15:13:20.000Z</time>
      </trkpt>
      <trkpt lat="45.59271" lon="6.12646">
        <ele>1108</ele>
        <time>2012-01-24T15:13:25.000Z</time>
      </trkpt>
      <trkpt lat="45.5927" lon="6.12643">
        <ele>1108.4000244141</ele>
        <time>2012-01-24T15:13:29.000Z</time>
      </trkpt>
      <trkpt lat="45.59268" lon="6.12637">
        <ele>1109</ele>
        <time>2012-01-24T15:13:34.000Z</time>
      </trkpt>
      <trkpt lat="45.59269" lon="6.12635">
        <ele>1109.4000244141</ele>
        <time>2012-01-24T15:13:37.000Z</time>
      </trkpt>
      <trkpt lat="45.59271" lon="6.12633">
        <ele>1110.8000488281</ele>
        <time>2012-01-24T15:13:41.000Z</time>
      </trkpt>
      <trkpt lat="45.59272" lon="6.12632">
        <ele>1112.1999511719</ele>
        <time>2012-01-24T15:13:46.000Z</time>
      </trkpt>
      <trkpt lat="45.59271" lon="6.12629">
        <ele>1112.8000488281</ele>
        <time>2012-01-24T15:13:50.000Z</time>
      </trkpt>
      <trkpt lat="45.59271" lon="6.12626">
        <ele>1112.8000488281</ele>
        <time>2012-01-24T15:13:55.000Z</time>
      </trkpt>
      <trkpt lat="45.59275" lon="6.12626">
        <ele>1114.1999511719</ele>
        <time>2012-01-24T15:14:01.000Z</time>
      </trkpt>
      <trkpt lat="45.59279" lon="6.12626">
        <ele>1114.5999755859</ele>
        <time>2012-01-24T15:14:07.000Z</time>
      </trkpt>
      <trkpt lat="45.59281" lon="6.12624">
        <ele>1115.5999755859</ele>
        <time>2012-01-24T15:14:10.000Z</time>
      </trkpt>
      <trkpt lat="45.59284" lon="6.12622">
        <ele>1116.5999755859</ele>
        <time>2012-01-24T15:14:16.000Z</time>
      </trkpt>
      <trkpt lat="45.59287" lon="6.12616">
        <ele>1117</ele>
        <time>2012-01-24T15:14:21.000Z</time>
      </trkpt>
      <trkpt lat="45.5929" lon="6.12612">
        <ele>1117</ele>
        <time>2012-01-24T15:14:28.000Z</time>
      </trkpt>
      <trkpt lat="45.59293" lon="6.12606">
        <ele>1116.5999755859</ele>
        <time>2012-01-24T15:14:34.000Z</time>
      </trkpt>
      <trkpt lat="45.59297" lon="6.12602">
        <ele>1115.1999511719</ele>
        <time>2012-01-24T15:14:40.000Z</time>
      </trkpt>
      <trkpt lat="45.59295" lon="6.126">
        <ele>1116.1999511719</ele>
        <time>2012-01-24T15:14:46.000Z</time>
      </trkpt>
      <trkpt lat="45.59292" lon="6.126">
        <ele>1116.1999511719</ele>
        <time>2012-01-24T15:14:51.000Z</time>
      </trkpt>
      <trkpt lat="45.59291" lon="6.12599">
        <ele>1117</ele>
        <time>2012-01-24T15:14:56.000Z</time>
      </trkpt>
      <trkpt lat="45.59292" lon="6.12596">
        <ele>1117</ele>
        <time>2012-01-24T15:14:59.000Z</time>
      </trkpt>
      <trkpt lat="45.59297" lon="6.12594">
        <ele>1116.5999755859</ele>
        <time>2012-01-24T15:15:03.000Z</time>
      </trkpt>
      <trkpt lat="45.593" lon="6.12593">
        <ele>1117</ele>
        <time>2012-01-24T15:15:05.000Z</time>
      </trkpt>
      <trkpt lat="45.59305" lon="6.12593">
        <ele>1117.5999755859</ele>
        <time>2012-01-24T15:15:09.000Z</time>
      </trkpt>
      <trkpt lat="45.5931" lon="6.12592">
        <ele>1118</ele>
        <time>2012-01-24T15:15:13.000Z</time>
      </trkpt>
      <trkpt lat="45.59315" lon="6.12592">
        <ele>1120</ele>
        <time>2012-01-24T15:15:17.000Z</time>
      </trkpt>
      <trkpt lat="45.5932" lon="6.1259">
        <ele>1123.8000488281</ele>
        <time>2012-01-24T15:15:23.000Z</time>
      </trkpt>
      <trkpt lat="45.59324" lon="6.12588">
        <ele>1126.1999511719</ele>
        <time>2012-01-24T15:15:28.000Z</time>
      </trkpt>
      <trkpt lat="45.59328" lon="6.12587">
        <ele>1129.5999755859</ele>
        <time>2012-01-24T15:15:33.000Z</time>
      </trkpt>
      <trkpt lat="45.59333" lon="6.1259">
        <ele>1130.5999755859</ele>
        <time>2012-01-24T15:15:39.000Z</time>
      </trkpt>
      <trkpt lat="45.59337" lon="6.12594">
        <ele>1130.5999755859</ele>
        <time>2012-01-24T15:15:44.000Z</time>
      </trkpt>
      <trkpt lat="45.59344" lon="6.12597">
        <ele>1131.5999755859</ele>
        <time>2012-01-24T15:15:50.000Z</time>
      </trkpt>
      <trkpt lat="45.59348" lon="6.12596">
        <ele>1132.4000244141</ele>
        <time>2012-01-24T15:15:54.000Z</time>
      </trkpt>
      <trkpt lat="45.5935" lon="6.12594">
        <ele>1132.4000244141</ele>
        <time>2012-01-24T15:15:57.000Z</time>
      </trkpt>
      <trkpt lat="45.59355" lon="6.12586">
        <ele>1134</ele>
        <time>2012-01-24T15:16:05.000Z</time>
      </trkpt>
      <trkpt lat="45.59357" lon="6.12584">
        <ele>1134.8000488281</ele>
        <time>2012-01-24T15:16:09.000Z</time>
      </trkpt>
      <trkpt lat="45.59359" lon="6.12582">
        <ele>1134.8000488281</ele>
        <time>2012-01-24T15:16:13.000Z</time>
      </trkpt>
      <trkpt lat="45.59363" lon="6.12578">
        <ele>1136.4000244141</ele>
        <time>2012-01-24T15:16:18.000Z</time>
      </trkpt>
      <trkpt lat="45.59366" lon="6.12574">
        <ele>1137.1999511719</ele>
        <time>2012-01-24T15:16:23.000Z</time>
      </trkpt>
      <trkpt lat="45.59369" lon="6.1257">
        <ele>1137.8000488281</ele>
        <time>2012-01-24T15:16:28.000Z</time>
      </trkpt>
      <trkpt lat="45.59375" lon="6.12567">
        <ele>1137.8000488281</ele>
        <time>2012-01-24T15:16:33.000Z</time>
      </trkpt>
      <trkpt lat="45.59377" lon="6.12566">
        <ele>1137.8000488281</ele>
        <time>2012-01-24T15:16:35.000Z</time>
      </trkpt>
      <trkpt lat="45.59383" lon="6.12564">
        <ele>1138.1999511719</ele>
        <time>2012-01-24T15:16:39.000Z</time>
      </trkpt>
      <trkpt lat="45.59386" lon="6.12562">
        <ele>1137.8000488281</ele>
        <time>2012-01-24T15:16:42.000Z</time>
      </trkpt>
      <trkpt lat="45.59391" lon="6.1256">
        <ele>1141.5999755859</ele>
        <time>2012-01-24T15:16:47.000Z</time>
      </trkpt>
      <trkpt lat="45.59392" lon="6.1256">
        <ele>1143.5999755859</ele>
        <time>2012-01-24T15:16:52.000Z</time>
      </trkpt>
      <trkpt lat="45.59394" lon="6.12557">
        <ele>1145.4000244141</ele>
        <time>2012-01-24T15:16:56.000Z</time>
      </trkpt>
      <trkpt lat="45.59395" lon="6.12554">
        <ele>1146.8000488281</ele>
        <time>2012-01-24T15:17:00.000Z</time>
      </trkpt>
      <trkpt lat="45.59392" lon="6.12554">
        <ele>1146.8000488281</ele>
        <time>2012-01-24T15:17:05.000Z</time>
      </trkpt>
      <trkpt lat="45.59387" lon="6.12553">
        <ele>1146.8000488281</ele>
        <time>2012-01-24T15:17:11.000Z</time>
      </trkpt>
      <trkpt lat="45.59382" lon="6.12551">
        <ele>1150.1999511719</ele>
        <time>2012-01-24T15:17:17.000Z</time>
      </trkpt>
      <trkpt lat="45.59377" lon="6.12548">
        <ele>1153.1999511719</ele>
        <time>2012-01-24T15:17:23.000Z</time>
      </trkpt>
      <trkpt lat="45.59377" lon="6.12544">
        <ele>1154.1999511719</ele>
        <time>2012-01-24T15:17:28.000Z</time>
      </trkpt>
      <trkpt lat="45.59381" lon="6.12541">
        <ele>1154.1999511719</ele>
        <time>2012-01-24T15:17:33.000Z</time>
      </trkpt>
      <trkpt lat="45.59386" lon="6.12537">
        <ele>1153.1999511719</ele>
        <time>2012-01-24T15:17:39.000Z</time>
      </trkpt>
      <trkpt lat="45.59389" lon="6.12532">
        <ele>1153.5999755859</ele>
        <time>2012-01-24T15:17:45.000Z</time>
      </trkpt>
      <trkpt lat="45.59392" lon="6.12529">
        <ele>1155.5999755859</ele>
        <time>2012-01-24T15:17:50.000Z</time>
      </trkpt>
      <trkpt lat="45.59392" lon="6.12528">
        <ele>1156.5999755859</ele>
        <time>2012-01-24T15:17:55.000Z</time>
      </trkpt>
      <trkpt lat="45.59389" lon="6.12526">
        <ele>1158.4000244141</ele>
        <time>2012-01-24T15:17:59.000Z</time>
      </trkpt>
      <trkpt lat="45.59387" lon="6.12523">
        <ele>1160.8000488281</ele>
        <time>2012-01-24T15:18:04.000Z</time>
      </trkpt>
      <trkpt lat="45.59387" lon="6.12519">
        <ele>1161.4000244141</ele>
        <time>2012-01-24T15:18:08.000Z</time>
      </trkpt>
      <trkpt lat="45.59391" lon="6.12516">
        <ele>1162.1999511719</ele>
        <time>2012-01-24T15:18:13.000Z</time>
      </trkpt>
      <trkpt lat="45.59393" lon="6.12514">
        <ele>1163.8000488281</ele>
        <time>2012-01-24T15:18:17.000Z</time>
      </trkpt>
      <trkpt lat="45.59393" lon="6.12512">
        <ele>1164.5999755859</ele>
        <time>2012-01-24T15:18:21.000Z</time>
      </trkpt>
      <trkpt lat="45.5939" lon="6.1251">
        <ele>1165.1999511719</ele>
        <time>2012-01-24T15:18:25.000Z</time>
      </trkpt>
      <trkpt lat="45.59385" lon="6.12505">
        <ele>1166.5999755859</ele>
        <time>2012-01-24T15:18:31.000Z</time>
      </trkpt>
      <trkpt lat="45.59383" lon="6.12504">
        <ele>1166.5999755859</ele>
        <time>2012-01-24T15:18:33.000Z</time>
      </trkpt>
      <trkpt lat="45.59379" lon="6.125">
        <ele>1168.5999755859</ele>
        <time>2012-01-24T15:18:38.000Z</time>
      </trkpt>
      <trkpt lat="45.59377" lon="6.12495">
        <ele>1170</ele>
        <time>2012-01-24T15:18:44.000Z</time>
      </trkpt>
      <trkpt lat="45.59377" lon="6.12492">
        <ele>1170.4000244141</ele>
        <time>2012-01-24T15:18:49.000Z</time>
      </trkpt>
      <trkpt lat="45.59379" lon="6.1249">
        <ele>1171.4000244141</ele>
        <time>2012-01-24T15:18:54.000Z</time>
      </trkpt>
      <trkpt lat="45.59383" lon="6.12489">
        <ele>1171.8000488281</ele>
        <time>2012-01-24T15:18:58.000Z</time>
      </trkpt>
      <trkpt lat="45.59388" lon="6.12488">
        <ele>1175.1999511719</ele>
        <time>2012-01-24T15:19:04.000Z</time>
      </trkpt>
      <trkpt lat="45.59391" lon="6.12486">
        <ele>1176.5999755859</ele>
        <time>2012-01-24T15:19:08.000Z</time>
      </trkpt>
      <trkpt lat="45.59393" lon="6.12487">
        <ele>1177.5999755859</ele>
        <time>2012-01-24T15:19:11.000Z</time>
      </trkpt>
      <trkpt lat="45.59397" lon="6.12484">
        <ele>1180.5999755859</ele>
        <time>2012-01-24T15:19:17.000Z</time>
      </trkpt>
      <trkpt lat="45.59399" lon="6.12481">
        <ele>1183.4000244141</ele>
        <time>2012-01-24T15:19:22.000Z</time>
      </trkpt>
      <trkpt lat="45.59399" lon="6.1248">
        <ele>1184</ele>
        <time>2012-01-24T15:19:26.000Z</time>
      </trkpt>
      <trkpt lat="45.59397" lon="6.12478">
        <ele>1184</ele>
        <time>2012-01-24T15:19:30.000Z</time>
      </trkpt>
      <trkpt lat="45.59393" lon="6.12473">
        <ele>1183.4000244141</ele>
        <time>2012-01-24T15:19:36.000Z</time>
      </trkpt>
      <trkpt lat="45.59395" lon="6.12473">
        <ele>1183.4000244141</ele>
        <time>2012-01-24T15:19:40.000Z</time>
      </trkpt>
      <trkpt lat="45.59397" lon="6.1247">
        <ele>1184.4000244141</ele>
        <time>2012-01-24T15:19:45.000Z</time>
      </trkpt>
      <trkpt lat="45.59399" lon="6.12464">
        <ele>1185.4000244141</ele>
        <time>2012-01-24T15:19:50.000Z</time>
      </trkpt>
      <trkpt lat="45.59401" lon="6.1246">
        <ele>1186.8000488281</ele>
        <time>2012-01-24T15:19:55.000Z</time>
      </trkpt>
      <trkpt lat="45.59402" lon="6.12455">
        <ele>1187.8000488281</ele>
        <time>2012-01-24T15:19:59.000Z</time>
      </trkpt>
      <trkpt lat="45.59403" lon="6.12452">
        <ele>1189.1999511719</ele>
        <time>2012-01-24T15:20:03.000Z</time>
      </trkpt>
      <trkpt lat="45.59404" lon="6.12448">
        <ele>1190.5999755859</ele>
        <time>2012-01-24T15:20:08.000Z</time>
      </trkpt>
      <trkpt lat="45.59404" lon="6.12447">
        <ele>1190.5999755859</ele>
        <time>2012-01-24T15:20:13.000Z</time>
      </trkpt>
      <trkpt lat="45.59401" lon="6.12448">
        <ele>1191.5999755859</ele>
        <time>2012-01-24T15:20:17.000Z</time>
      </trkpt>
      <trkpt lat="45.59396" lon="6.12448">
        <ele>1193</ele>
        <time>2012-01-24T15:20:23.000Z</time>
      </trkpt>
      <trkpt lat="45.59393" lon="6.12444">
        <ele>1194.4000244141</ele>
        <time>2012-01-24T15:20:28.000Z</time>
      </trkpt>
      <trkpt lat="45.59394" lon="6.1244">
        <ele>1195.4000244141</ele>
        <time>2012-01-24T15:20:33.000Z</time>
      </trkpt>
      <trkpt lat="45.59398" lon="6.12436">
        <ele>1194.4000244141</ele>
        <time>2012-01-24T15:20:38.000Z</time>
      </trkpt>
      <trkpt lat="45.59401" lon="6.12431">
        <ele>1195.4000244141</ele>
        <time>2012-01-24T15:20:43.000Z</time>
      </trkpt>
      <trkpt lat="45.59404" lon="6.12425">
        <ele>1197.4000244141</ele>
        <time>2012-01-24T15:20:49.000Z</time>
      </trkpt>
      <trkpt lat="45.59407" lon="6.12421">
        <ele>1199.8000488281</ele>
        <time>2012-01-24T15:20:54.000Z</time>
      </trkpt>
      <trkpt lat="45.5941" lon="6.12415">
        <ele>1201.1999511719</ele>
        <time>2012-01-24T15:21:00.000Z</time>
      </trkpt>
      <trkpt lat="45.59411" lon="6.12409">
        <ele>1203.5999755859</ele>
        <time>2012-01-24T15:21:06.000Z</time>
      </trkpt>
      <trkpt lat="45.59412" lon="6.12405">
        <ele>1205</ele>
        <time>2012-01-24T15:21:11.000Z</time>
      </trkpt>
      <trkpt lat="45.59411" lon="6.124">
        <ele>1206.4000244141</ele>
        <time>2012-01-24T15:21:17.000Z</time>
      </trkpt>
      <trkpt lat="45.59411" lon="6.12396">
        <ele>1206.4000244141</ele>
        <time>2012-01-24T15:21:21.000Z</time>
      </trkpt>
      <trkpt lat="45.59409" lon="6.12392">
        <ele>1208</ele>
        <time>2012-01-24T15:21:26.000Z</time>
      </trkpt>
      <trkpt lat="45.59406" lon="6.12387">
        <ele>1209.4000244141</ele>
        <time>2012-01-24T15:21:32.000Z</time>
      </trkpt>
      <trkpt lat="45.59403" lon="6.12383">
        <ele>1210.8000488281</ele>
        <time>2012-01-24T15:21:37.000Z</time>
      </trkpt>
      <trkpt lat="45.59399" lon="6.12379">
        <ele>1212.1999511719</ele>
        <time>2012-01-24T15:21:43.000Z</time>
      </trkpt>
      <trkpt lat="45.59394" lon="6.12374">
        <ele>1214.1999511719</ele>
        <time>2012-01-24T15:21:49.000Z</time>
      </trkpt>
      <trkpt lat="45.59391" lon="6.1237">
        <ele>1215.5999755859</ele>
        <time>2012-01-24T15:21:54.000Z</time>
      </trkpt>
      <trkpt lat="45.59388" lon="6.12367">
        <ele>1218</ele>
        <time>2012-01-24T15:21:59.000Z</time>
      </trkpt>
      <trkpt lat="45.59383" lon="6.12362">
        <ele>1219.4000244141</ele>
        <time>2012-01-24T15:22:05.000Z</time>
      </trkpt>
      <trkpt lat="45.5938" lon="6.12358">
        <ele>1221</ele>
        <time>2012-01-24T15:22:11.000Z</time>
      </trkpt>
      <trkpt lat="45.59376" lon="6.12354">
        <ele>1222.8000488281</ele>
        <time>2012-01-24T15:22:16.000Z</time>
      </trkpt>
      <trkpt lat="45.59373" lon="6.12349">
        <ele>1223.8000488281</ele>
        <time>2012-01-24T15:22:22.000Z</time>
      </trkpt>
      <trkpt lat="45.59371" lon="6.12344">
        <ele>1225.1999511719</ele>
        <time>2012-01-24T15:22:28.000Z</time>
      </trkpt>
      <trkpt lat="45.59374" lon="6.12341">
        <ele>1227.1999511719</ele>
        <time>2012-01-24T15:22:33.000Z</time>
      </trkpt>
      <trkpt lat="45.59379" lon="6.12338">
        <ele>1227.5999755859</ele>
        <time>2012-01-24T15:22:38.000Z</time>
      </trkpt>
      <trkpt lat="45.59381" lon="6.12337">
        <ele>1227.5999755859</ele>
        <time>2012-01-24T15:22:40.000Z</time>
      </trkpt>
      <trkpt lat="45.59386" lon="6.12333">
        <ele>1228.5999755859</ele>
        <time>2012-01-24T15:22:46.000Z</time>
      </trkpt>
      <trkpt lat="45.5939" lon="6.12329">
        <ele>1228.5999755859</ele>
        <time>2012-01-24T15:22:51.000Z</time>
      </trkpt>
      <trkpt lat="45.59393" lon="6.12327">
        <ele>1229.5999755859</ele>
        <time>2012-01-24T15:22:55.000Z</time>
      </trkpt>
      <trkpt lat="45.59395" lon="6.12322">
        <ele>1232</ele>
        <time>2012-01-24T15:23:02.000Z</time>
      </trkpt>
      <trkpt lat="45.59397" lon="6.12317">
        <ele>1233.8000488281</ele>
        <time>2012-01-24T15:23:07.000Z</time>
      </trkpt>
      <trkpt lat="45.594" lon="6.12312">
        <ele>1235.4000244141</ele>
        <time>2012-01-24T15:23:13.000Z</time>
      </trkpt>
      <trkpt lat="45.59402" lon="6.12307">
        <ele>1236.8000488281</ele>
        <time>2012-01-24T15:23:18.000Z</time>
      </trkpt>
      <trkpt lat="45.59405" lon="6.12303">
        <ele>1238.1999511719</ele>
        <time>2012-01-24T15:23:23.000Z</time>
      </trkpt>
      <trkpt lat="45.59409" lon="6.12298">
        <ele>1240.1999511719</ele>
        <time>2012-01-24T15:23:29.000Z</time>
      </trkpt>
      <trkpt lat="45.59413" lon="6.12293">
        <ele>1241.5999755859</ele>
        <time>2012-01-24T15:23:35.000Z</time>
      </trkpt>
      <trkpt lat="45.59417" lon="6.12288">
        <ele>1243</ele>
        <time>2012-01-24T15:23:41.000Z</time>
      </trkpt>
      <trkpt lat="45.59421" lon="6.12283">
        <ele>1245</ele>
        <time>2012-01-24T15:23:47.000Z</time>
      </trkpt>
      <trkpt lat="45.59418" lon="6.12282">
        <ele>1245.4000244141</ele>
        <time>2012-01-24T15:23:53.000Z</time>
      </trkpt>
      <trkpt lat="45.59413" lon="6.12279">
        <ele>1246</ele>
        <time>2012-01-24T15:23:59.000Z</time>
      </trkpt>
      <trkpt lat="45.59409" lon="6.12275">
        <ele>1246.8000488281</ele>
        <time>2012-01-24T15:24:04.000Z</time>
      </trkpt>
      <trkpt lat="45.59403" lon="6.1227">
        <ele>1248.4000244141</ele>
        <time>2012-01-24T15:24:11.000Z</time>
      </trkpt>
      <trkpt lat="45.59401" lon="6.12267">
        <ele>1249.1999511719</ele>
        <time>2012-01-24T15:24:14.000Z</time>
      </trkpt>
      <trkpt lat="45.59396" lon="6.12262">
        <ele>1251.1999511719</ele>
        <time>2012-01-24T15:24:21.000Z</time>
      </trkpt>
      <trkpt lat="45.59394" lon="6.12259">
        <ele>1252.5999755859</ele>
        <time>2012-01-24T15:24:26.000Z</time>
      </trkpt>
      <trkpt lat="45.5939" lon="6.12256">
        <ele>1254</ele>
        <time>2012-01-24T15:24:31.000Z</time>
      </trkpt>
      <trkpt lat="45.59388" lon="6.12254">
        <ele>1254.5999755859</ele>
        <time>2012-01-24T15:24:35.000Z</time>
      </trkpt>
      <trkpt lat="45.59386" lon="6.12252">
        <ele>1256</ele>
        <time>2012-01-24T15:24:40.000Z</time>
      </trkpt>
      <trkpt lat="45.59387" lon="6.12252">
        <ele>1256.4000244141</ele>
        <time>2012-01-24T15:24:43.000Z</time>
      </trkpt>
      <trkpt lat="45.59392" lon="6.12249">
        <ele>1256.4000244141</ele>
        <time>2012-01-24T15:24:49.000Z</time>
      </trkpt>
      <trkpt lat="45.59395" lon="6.12247">
        <ele>1256.4000244141</ele>
        <time>2012-01-24T15:24:52.000Z</time>
      </trkpt>
      <trkpt lat="45.59401" lon="6.12243">
        <ele>1258.4000244141</ele>
        <time>2012-01-24T15:24:58.000Z</time>
      </trkpt>
      <trkpt lat="45.59404" lon="6.12241">
        <ele>1259.4000244141</ele>
        <time>2012-01-24T15:25:03.000Z</time>
      </trkpt>
      <trkpt lat="45.59407" lon="6.12239">
        <ele>1259.8000488281</ele>
        <time>2012-01-24T15:25:07.000Z</time>
      </trkpt>
      <trkpt lat="45.5941" lon="6.12235">
        <ele>1259.8000488281</ele>
        <time>2012-01-24T15:25:11.000Z</time>
      </trkpt>
      <trkpt lat="45.59414" lon="6.12234">
        <ele>1260.8000488281</ele>
        <time>2012-01-24T15:25:15.000Z</time>
      </trkpt>
      <trkpt lat="45.59419" lon="6.12233">
        <ele>1261.8000488281</ele>
        <time>2012-01-24T15:25:21.000Z</time>
      </trkpt>
      <trkpt lat="45.59424" lon="6.12229">
        <ele>1263.5999755859</ele>
        <time>2012-01-24T15:25:28.000Z</time>
      </trkpt>
      <trkpt lat="45.59424" lon="6.12228">
        <ele>1264.1999511719</ele>
        <time>2012-01-24T15:25:34.000Z</time>
      </trkpt>
      <trkpt lat="45.59422" lon="6.12226">
        <ele>1264.5999755859</ele>
        <time>2012-01-24T15:25:41.000Z</time>
      </trkpt>
      <trkpt lat="45.59419" lon="6.12223">
        <ele>1266</ele>
        <time>2012-01-24T15:25:46.000Z</time>
      </trkpt>
      <trkpt lat="45.59415" lon="6.12219">
        <ele>1267.5999755859</ele>
        <time>2012-01-24T15:25:52.000Z</time>
      </trkpt>
      <trkpt lat="45.59415" lon="6.12219">
        <ele>1269</ele>
        <time>2012-01-24T15:25:57.000Z</time>
      </trkpt>
      <trkpt lat="45.59411" lon="6.12216">
        <ele>1269</ele>
        <time>2012-01-24T15:26:01.000Z</time>
      </trkpt>
      <trkpt lat="45.59407" lon="6.12212">
        <ele>1271.4000244141</ele>
        <time>2012-01-24T15:26:07.000Z</time>
      </trkpt>
      <trkpt lat="45.59402" lon="6.12208">
        <ele>1273.8000488281</ele>
        <time>2012-01-24T15:26:13.000Z</time>
      </trkpt>
      <trkpt lat="45.59397" lon="6.12204">
        <ele>1275.8000488281</ele>
        <time>2012-01-24T15:26:19.000Z</time>
      </trkpt>
      <trkpt lat="45.59392" lon="6.12199">
        <ele>1277.5999755859</ele>
        <time>2012-01-24T15:26:25.000Z</time>
      </trkpt>
      <trkpt lat="45.59389" lon="6.12196">
        <ele>1279</ele>
        <time>2012-01-24T15:26:30.000Z</time>
      </trkpt>
      <trkpt lat="45.59386" lon="6.12192">
        <ele>1280.5999755859</ele>
        <time>2012-01-24T15:26:35.000Z</time>
      </trkpt>
      <trkpt lat="45.59383" lon="6.12188">
        <ele>1282</ele>
        <time>2012-01-24T15:26:40.000Z</time>
      </trkpt>
      <trkpt lat="45.59381" lon="6.12183">
        <ele>1283</ele>
        <time>2012-01-24T15:26:45.000Z</time>
      </trkpt>
      <trkpt lat="45.59381" lon="6.12179">
        <ele>1284.8000488281</ele>
        <time>2012-01-24T15:26:51.000Z</time>
      </trkpt>
      <trkpt lat="45.59385" lon="6.12176">
        <ele>1285.8000488281</ele>
        <time>2012-01-24T15:26:56.000Z</time>
      </trkpt>
      <trkpt lat="45.59391" lon="6.12174">
        <ele>1286.8000488281</ele>
        <time>2012-01-24T15:27:03.000Z</time>
      </trkpt>
      <trkpt lat="45.59394" lon="6.12174">
        <ele>1287.1999511719</ele>
        <time>2012-01-24T15:27:06.000Z</time>
      </trkpt>
      <trkpt lat="45.59398" lon="6.12173">
        <ele>1288.5999755859</ele>
        <time>2012-01-24T15:27:11.000Z</time>
      </trkpt>
      <trkpt lat="45.59402" lon="6.1217">
        <ele>1290.1999511719</ele>
        <time>2012-01-24T15:27:16.000Z</time>
      </trkpt>
      <trkpt lat="45.59405" lon="6.12169">
        <ele>1290.5999755859</ele>
        <time>2012-01-24T15:27:20.000Z</time>
      </trkpt>
      <trkpt lat="45.59407" lon="6.12167">
        <ele>1291</ele>
        <time>2012-01-24T15:27:23.000Z</time>
      </trkpt>
      <trkpt lat="45.59411" lon="6.12166">
        <ele>1292</ele>
        <time>2012-01-24T15:27:27.000Z</time>
      </trkpt>
      <trkpt lat="45.59416" lon="6.12164">
        <ele>1293</ele>
        <time>2012-01-24T15:27:32.000Z</time>
      </trkpt>
      <trkpt lat="45.59421" lon="6.12162">
        <ele>1294.4000244141</ele>
        <time>2012-01-24T15:27:38.000Z</time>
      </trkpt>
      <trkpt lat="45.59423" lon="6.12161">
        <ele>1296.4000244141</ele>
        <time>2012-01-24T15:27:42.000Z</time>
      </trkpt>
      <trkpt lat="45.59422" lon="6.1216">
        <ele>1296.8000488281</ele>
        <time>2012-01-24T15:27:47.000Z</time>
      </trkpt>
      <trkpt lat="45.59418" lon="6.12157">
        <ele>1297.8000488281</ele>
        <time>2012-01-24T15:27:51.000Z</time>
      </trkpt>
      <trkpt lat="45.59415" lon="6.12154">
        <ele>1298.8000488281</ele>
        <time>2012-01-24T15:27:56.000Z</time>
      </trkpt>
      <trkpt lat="45.59412" lon="6.1215">
        <ele>1299.1999511719</ele>
        <time>2012-01-24T15:28:01.000Z</time>
      </trkpt>
      <trkpt lat="45.59409" lon="6.12147">
        <ele>1300.8000488281</ele>
        <time>2012-01-24T15:28:06.000Z</time>
      </trkpt>
      <trkpt lat="45.59405" lon="6.12143">
        <ele>1302.5999755859</ele>
        <time>2012-01-24T15:28:11.000Z</time>
      </trkpt>
      <trkpt lat="45.59401" lon="6.12139">
        <ele>1303.5999755859</ele>
        <time>2012-01-24T15:28:16.000Z</time>
      </trkpt>
      <trkpt lat="45.59397" lon="6.12135">
        <ele>1305.5999755859</ele>
        <time>2012-01-24T15:28:22.000Z</time>
      </trkpt>
      <trkpt lat="45.59393" lon="6.1213">
        <ele>1307.4000244141</ele>
        <time>2012-01-24T15:28:28.000Z</time>
      </trkpt>
      <trkpt lat="45.5939" lon="6.12126">
        <ele>1308.4000244141</ele>
        <time>2012-01-24T15:28:33.000Z</time>
      </trkpt>
      <trkpt lat="45.59388" lon="6.12122">
        <ele>1308.8000488281</ele>
        <time>2012-01-24T15:28:37.000Z</time>
      </trkpt>
      <trkpt lat="45.59389" lon="6.1212">
        <ele>1308.8000488281</ele>
        <time>2012-01-24T15:28:41.000Z</time>
      </trkpt>
      <trkpt lat="45.59393" lon="6.12119">
        <ele>1309.8000488281</ele>
        <time>2012-01-24T15:28:45.000Z</time>
      </trkpt>
      <trkpt lat="45.59398" lon="6.12119">
        <ele>1309.8000488281</ele>
        <time>2012-01-24T15:28:49.000Z</time>
      </trkpt>
      <trkpt lat="45.59403" lon="6.12118">
        <ele>1311.8000488281</ele>
        <time>2012-01-24T15:28:55.000Z</time>
      </trkpt>
      <trkpt lat="45.59407" lon="6.12117">
        <ele>1312.8000488281</ele>
        <time>2012-01-24T15:28:59.000Z</time>
      </trkpt>
      <trkpt lat="45.59412" lon="6.12116">
        <ele>1312.8000488281</ele>
        <time>2012-01-24T15:29:04.000Z</time>
      </trkpt>
      <trkpt lat="45.59414" lon="6.12115">
        <ele>1313.5999755859</ele>
        <time>2012-01-24T15:29:09.000Z</time>
      </trkpt>
      <trkpt lat="45.59411" lon="6.12112">
        <ele>1314.1999511719</ele>
        <time>2012-01-24T15:29:14.000Z</time>
      </trkpt>
      <trkpt lat="45.5941" lon="6.12111">
        <ele>1314.5999755859</ele>
        <time>2012-01-24T15:29:15.000Z</time>
      </trkpt>
      <trkpt lat="45.59406" lon="6.12106">
        <ele>1316.5999755859</ele>
        <time>2012-01-24T15:29:21.000Z</time>
      </trkpt>
      <trkpt lat="45.59402" lon="6.12101">
        <ele>1318.4000244141</ele>
        <time>2012-01-24T15:29:27.000Z</time>
      </trkpt>
      <trkpt lat="45.59399" lon="6.12097">
        <ele>1320</ele>
        <time>2012-01-24T15:29:32.000Z</time>
      </trkpt>
      <trkpt lat="45.59399" lon="6.12093">
        <ele>1322.4000244141</ele>
        <time>2012-01-24T15:29:37.000Z</time>
      </trkpt>
      <trkpt lat="45.59402" lon="6.12092">
        <ele>1323.1999511719</ele>
        <time>2012-01-24T15:29:41.000Z</time>
      </trkpt>
      <trkpt lat="45.59402" lon="6.12091">
        <ele>1324.8000488281</ele>
        <time>2012-01-24T15:29:46.000Z</time>
      </trkpt>
      <trkpt lat="45.594" lon="6.1209">
        <ele>1326.1999511719</ele>
        <time>2012-01-24T15:29:50.000Z</time>
      </trkpt>
      <trkpt lat="45.59396" lon="6.12085">
        <ele>1327.5999755859</ele>
        <time>2012-01-24T15:29:57.000Z</time>
      </trkpt>
      <trkpt lat="45.59398" lon="6.12083">
        <ele>1327.5999755859</ele>
        <time>2012-01-24T15:30:01.000Z</time>
      </trkpt>
      <trkpt lat="45.59405" lon="6.12084">
        <ele>1328</ele>
        <time>2012-01-24T15:30:07.000Z</time>
      </trkpt>
      <trkpt lat="45.59413" lon="6.12085">
        <ele>1329.5999755859</ele>
        <time>2012-01-24T15:30:14.000Z</time>
      </trkpt>
      <trkpt lat="45.59417" lon="6.12086">
        <ele>1330.5999755859</ele>
        <time>2012-01-24T15:30:17.000Z</time>
      </trkpt>
      <trkpt lat="45.59424" lon="6.12087">
        <ele>1332.4000244141</ele>
        <time>2012-01-24T15:30:24.000Z</time>
      </trkpt>
      <trkpt lat="45.5943" lon="6.12085">
        <ele>1333.4000244141</ele>
        <time>2012-01-24T15:30:30.000Z</time>
      </trkpt>
      <trkpt lat="45.59434" lon="6.12083">
        <ele>1335.8000488281</ele>
        <time>2012-01-24T15:30:35.000Z</time>
      </trkpt>
      <trkpt lat="45.59437" lon="6.12081">
        <ele>1336.1999511719</ele>
        <time>2012-01-24T15:30:39.000Z</time>
      </trkpt>
      <trkpt lat="45.5944" lon="6.12079">
        <ele>1337.8000488281</ele>
        <time>2012-01-24T15:30:44.000Z</time>
      </trkpt>
      <trkpt lat="45.59444" lon="6.12077">
        <ele>1338.5999755859</ele>
        <time>2012-01-24T15:30:50.000Z</time>
      </trkpt>
      <trkpt lat="45.59448" lon="6.12073">
        <ele>1340.1999511719</ele>
        <time>2012-01-24T15:30:56.000Z</time>
      </trkpt>
      <trkpt lat="45.59452" lon="6.12073">
        <ele>1343.4000244141</ele>
        <time>2012-01-24T15:31:01.000Z</time>
      </trkpt>
      <trkpt lat="45.59456" lon="6.12075">
        <ele>1345</ele>
        <time>2012-01-24T15:31:06.000Z</time>
      </trkpt>
      <trkpt lat="45.59463" lon="6.12078">
        <ele>1346.4000244141</ele>
        <time>2012-01-24T15:31:13.000Z</time>
      </trkpt>
      <trkpt lat="45.59468" lon="6.12078">
        <ele>1348.1999511719</ele>
        <time>2012-01-24T15:31:18.000Z</time>
      </trkpt>
      <trkpt lat="45.5947" lon="6.12077">
        <ele>1348.8000488281</ele>
        <time>2012-01-24T15:31:20.000Z</time>
      </trkpt>
      <trkpt lat="45.59478" lon="6.12076">
        <ele>1351.1999511719</ele>
        <time>2012-01-24T15:31:27.000Z</time>
      </trkpt>
      <trkpt lat="45.59481" lon="6.12076">
        <ele>1352.5999755859</ele>
        <time>2012-01-24T15:31:29.000Z</time>
      </trkpt>
      <trkpt lat="45.59487" lon="6.12076">
        <ele>1353.5999755859</ele>
        <time>2012-01-24T15:31:36.000Z</time>
      </trkpt>
      <trkpt lat="45.59492" lon="6.12075">
        <ele>1354</ele>
        <time>2012-01-24T15:31:42.000Z</time>
      </trkpt>
      <trkpt lat="45.59498" lon="6.12074">
        <ele>1356</ele>
        <time>2012-01-24T15:31:49.000Z</time>
      </trkpt>
      <trkpt lat="45.59502" lon="6.12073">
        <ele>1356.4000244141</ele>
        <time>2012-01-24T15:31:54.000Z</time>
      </trkpt>
      <trkpt lat="45.59506" lon="6.12074">
        <ele>1357.4000244141</ele>
        <time>2012-01-24T15:31:59.000Z</time>
      </trkpt>
      <trkpt lat="45.5951" lon="6.12073">
        <ele>1357.4000244141</ele>
        <time>2012-01-24T15:32:04.000Z</time>
      </trkpt>
      <trkpt lat="45.59514" lon="6.12072">
        <ele>1360.4000244141</ele>
        <time>2012-01-24T15:32:10.000Z</time>
      </trkpt>
      <trkpt lat="45.5952" lon="6.12071">
        <ele>1360.8000488281</ele>
        <time>2012-01-24T15:32:16.000Z</time>
      </trkpt>
      <trkpt lat="45.59525" lon="6.1207">
        <ele>1359.8000488281</ele>
        <time>2012-01-24T15:32:21.000Z</time>
      </trkpt>
      <trkpt lat="45.59529" lon="6.12069">
        <ele>1362.1999511719</ele>
        <time>2012-01-24T15:32:27.000Z</time>
      </trkpt>
      <trkpt lat="45.59533" lon="6.12068">
        <ele>1361.8000488281</ele>
        <time>2012-01-24T15:32:32.000Z</time>
      </trkpt>
      <trkpt lat="45.59538" lon="6.12066">
        <ele>1362.8000488281</ele>
        <time>2012-01-24T15:32:37.000Z</time>
      </trkpt>
      <trkpt lat="45.59543" lon="6.12065">
        <ele>1363.5999755859</ele>
        <time>2012-01-24T15:32:41.000Z</time>
      </trkpt>
      <trkpt lat="45.59549" lon="6.12064">
        <ele>1364.5999755859</ele>
        <time>2012-01-24T15:32:47.000Z</time>
      </trkpt>
      <trkpt lat="45.59556" lon="6.12063">
        <ele>1367</ele>
        <time>2012-01-24T15:32:54.000Z</time>
      </trkpt>
      <trkpt lat="45.59561" lon="6.12062">
        <ele>1368.4000244141</ele>
        <time>2012-01-24T15:32:59.000Z</time>
      </trkpt>
      <trkpt lat="45.59562" lon="6.12062">
        <ele>1369</ele>
        <time>2012-01-24T15:33:00.000Z</time>
      </trkpt>
      <trkpt lat="45.59565" lon="6.12063">
        <ele>1369.4000244141</ele>
        <time>2012-01-24T15:33:05.000Z</time>
      </trkpt>
      <trkpt lat="45.59565" lon="6.12064">
        <ele>1369</ele>
        <time>2012-01-24T15:33:17.000Z</time>
      </trkpt>
      <trkpt lat="45.59565" lon="6.12064">
        <ele>1369.4000244141</ele>
        <time>2012-01-24T15:33:29.000Z</time>
      </trkpt>
      <trkpt lat="45.59565" lon="6.12065">
        <ele>1368.4000244141</ele>
        <time>2012-01-24T15:33:41.000Z</time>
      </trkpt>
      <trkpt lat="45.59567" lon="6.12066">
        <ele>1369</ele>
        <time>2012-01-24T15:33:56.000Z</time>
      </trkpt>
      <trkpt lat="45.59567" lon="6.12066">
        <ele>1369.4000244141</ele>
        <time>2012-01-24T15:34:03.000Z</time>
      </trkpt>
      <trkpt lat="45.59567" lon="6.12065">
        <ele>1369.4000244141</ele>
        <time>2012-01-24T15:34:10.000Z</time>
      </trkpt>
      <trkpt lat="45.59573" lon="6.12065">
        <ele>1370.4000244141</ele>
        <time>2012-01-24T15:34:15.000Z</time>
      </trkpt>
      <trkpt lat="45.59578" lon="6.12064">
        <ele>1371.4000244141</ele>
        <time>2012-01-24T15:34:21.000Z</time>
      </trkpt>
      <trkpt lat="45.59581" lon="6.12065">
        <ele>1371.8000488281</ele>
        <time>2012-01-24T15:34:27.000Z</time>
      </trkpt>
      <trkpt lat="45.59583" lon="6.12064">
        <ele>1372.4000244141</ele>
        <time>2012-01-24T15:34:30.000Z</time>
      </trkpt>
      <trkpt lat="45.59591" lon="6.12063">
        <ele>1373.1999511719</ele>
        <time>2012-01-24T15:34:37.000Z</time>
      </trkpt>
      <trkpt lat="45.59592" lon="6.12064">
        <ele>1373.8000488281</ele>
        <time>2012-01-24T15:34:38.000Z</time>
      </trkpt>
      <trkpt lat="45.59599" lon="6.12066">
        <ele>1374.8000488281</ele>
        <time>2012-01-24T15:34:44.000Z</time>
      </trkpt>
      <trkpt lat="45.59606" lon="6.12067">
        <ele>1376.1999511719</ele>
        <time>2012-01-24T15:34:51.000Z</time>
      </trkpt>
      <trkpt lat="45.59612" lon="6.12068">
        <ele>1377.5999755859</ele>
        <time>2012-01-24T15:34:57.000Z</time>
      </trkpt>
      <trkpt lat="45.5961" lon="6.12066">
        <ele>1377.1999511719</ele>
        <time>2012-01-24T15:35:11.000Z</time>
      </trkpt>
      <trkpt lat="45.59608" lon="6.1206">
        <ele>1378</ele>
        <time>2012-01-24T15:35:16.000Z</time>
      </trkpt>
      <trkpt lat="45.59605" lon="6.12054">
        <ele>1379</ele>
        <time>2012-01-24T15:35:21.000Z</time>
      </trkpt>
      <trkpt lat="45.59603" lon="6.12051">
        <ele>1380</ele>
        <time>2012-01-24T15:35:24.000Z</time>
      </trkpt>
      <trkpt lat="45.59599" lon="6.12044">
        <ele>1382</ele>
        <time>2012-01-24T15:35:30.000Z</time>
      </trkpt>
      <trkpt lat="45.59597" lon="6.12039">
        <ele>1383.8000488281</ele>
        <time>2012-01-24T15:35:35.000Z</time>
      </trkpt>
      <trkpt lat="45.59595" lon="6.12033">
        <ele>1386.1999511719</ele>
        <time>2012-01-24T15:35:41.000Z</time>
      </trkpt>
      <trkpt lat="45.59591" lon="6.12023">
        <ele>1389.1999511719</ele>
        <time>2012-01-24T15:35:50.000Z</time>
      </trkpt>
      <trkpt lat="45.59589" lon="6.1202">
        <ele>1390.1999511719</ele>
        <time>2012-01-24T15:35:55.000Z</time>
      </trkpt>
      <trkpt lat="45.59586" lon="6.12015">
        <ele>1391.5999755859</ele>
        <time>2012-01-24T15:36:01.000Z</time>
      </trkpt>
      <trkpt lat="45.59583" lon="6.12012">
        <ele>1393</ele>
        <time>2012-01-24T15:36:06.000Z</time>
      </trkpt>
      <trkpt lat="45.5958" lon="6.12009">
        <ele>1393.4000244141</ele>
        <time>2012-01-24T15:36:11.000Z</time>
      </trkpt>
      <trkpt lat="45.59579" lon="6.12007">
        <ele>1394.4000244141</ele>
        <time>2012-01-24T15:36:15.000Z</time>
      </trkpt>
      <trkpt lat="45.59576" lon="6.12004">
        <ele>1395.4000244141</ele>
        <time>2012-01-24T15:36:20.000Z</time>
      </trkpt>
      <trkpt lat="45.59575" lon="6.12">
        <ele>1395.4000244141</ele>
        <time>2012-01-24T15:36:24.000Z</time>
      </trkpt>
      <trkpt lat="45.59574" lon="6.11998">
        <ele>1395.8000488281</ele>
        <time>2012-01-24T15:36:28.000Z</time>
      </trkpt>
      <trkpt lat="45.59573" lon="6.11995">
        <ele>1395.8000488281</ele>
        <time>2012-01-24T15:36:32.000Z</time>
      </trkpt>
      <trkpt lat="45.59575" lon="6.11993">
        <ele>1397.4000244141</ele>
        <time>2012-01-24T15:36:36.000Z</time>
      </trkpt>
      <trkpt lat="45.59578" lon="6.1199">
        <ele>1397.8000488281</ele>
        <time>2012-01-24T15:36:40.000Z</time>
      </trkpt>
      <trkpt lat="45.59582" lon="6.11988">
        <ele>1399.1999511719</ele>
        <time>2012-01-24T15:36:44.000Z</time>
      </trkpt>
      <trkpt lat="45.59581" lon="6.11988">
        <ele>1399.1999511719</ele>
        <time>2012-01-24T15:36:48.000Z</time>
      </trkpt>
      <trkpt lat="45.59578" lon="6.11985">
        <ele>1400.5999755859</ele>
        <time>2012-01-24T15:36:53.000Z</time>
      </trkpt>
      <trkpt lat="45.59575" lon="6.11982">
        <ele>1402.1999511719</ele>
        <time>2012-01-24T15:36:58.000Z</time>
      </trkpt>
      <trkpt lat="45.59571" lon="6.11979">
        <ele>1403.5999755859</ele>
        <time>2012-01-24T15:37:04.000Z</time>
      </trkpt>
      <trkpt lat="45.59569" lon="6.11977">
        <ele>1404.5999755859</ele>
        <time>2012-01-24T15:37:08.000Z</time>
      </trkpt>
      <trkpt lat="45.59565" lon="6.11973">
        <ele>1406</ele>
        <time>2012-01-24T15:37:14.000Z</time>
      </trkpt>
      <trkpt lat="45.59562" lon="6.11969">
        <ele>1407.4000244141</ele>
        <time>2012-01-24T15:37:20.000Z</time>
      </trkpt>
      <trkpt lat="45.59561" lon="6.11968">
        <ele>1408.4000244141</ele>
        <time>2012-01-24T15:37:25.000Z</time>
      </trkpt>
      <trkpt lat="45.59563" lon="6.11966">
        <ele>1408.8000488281</ele>
        <time>2012-01-24T15:37:30.000Z</time>
      </trkpt>
      <trkpt lat="45.59567" lon="6.11965">
        <ele>1409.8000488281</ele>
        <time>2012-01-24T15:37:35.000Z</time>
      </trkpt>
      <trkpt lat="45.59571" lon="6.11962">
        <ele>1410.1999511719</ele>
        <time>2012-01-24T15:37:40.000Z</time>
      </trkpt>
      <trkpt lat="45.59574" lon="6.11959">
        <ele>1412.1999511719</ele>
        <time>2012-01-24T15:37:44.000Z</time>
      </trkpt>
      <trkpt lat="45.59577" lon="6.11956">
        <ele>1414.1999511719</ele>
        <time>2012-01-24T15:37:48.000Z</time>
      </trkpt>
      <trkpt lat="45.59582" lon="6.11952">
        <ele>1417</ele>
        <time>2012-01-24T15:37:54.000Z</time>
      </trkpt>
      <trkpt lat="45.59585" lon="6.1195">
        <ele>1418.4000244141</ele>
        <time>2012-01-24T15:37:58.000Z</time>
      </trkpt>
      <trkpt lat="45.59589" lon="6.11946">
        <ele>1420.8000488281</ele>
        <time>2012-01-24T15:38:04.000Z</time>
      </trkpt>
      <trkpt lat="45.59591" lon="6.11943">
        <ele>1423.1999511719</ele>
        <time>2012-01-24T15:38:08.000Z</time>
      </trkpt>
      <trkpt lat="45.59592" lon="6.11942">
        <ele>1423.1999511719</ele>
        <time>2012-01-24T15:38:12.000Z</time>
      </trkpt>
      <trkpt lat="45.59589" lon="6.11938">
        <ele>1423.8000488281</ele>
        <time>2012-01-24T15:38:17.000Z</time>
      </trkpt>
      <trkpt lat="45.59586" lon="6.11935">
        <ele>1424.8000488281</ele>
        <time>2012-01-24T15:38:23.000Z</time>
      </trkpt>
      <trkpt lat="45.59584" lon="6.11932">
        <ele>1424.8000488281</ele>
        <time>2012-01-24T15:38:28.000Z</time>
      </trkpt>
      <trkpt lat="45.59581" lon="6.11929">
        <ele>1425.5999755859</ele>
        <time>2012-01-24T15:38:32.000Z</time>
      </trkpt>
      <trkpt lat="45.59578" lon="6.11926">
        <ele>1427.1999511719</ele>
        <time>2012-01-24T15:38:37.000Z</time>
      </trkpt>
      <trkpt lat="45.59575" lon="6.11921">
        <ele>1428</ele>
        <time>2012-01-24T15:38:41.000Z</time>
      </trkpt>
      <trkpt lat="45.59572" lon="6.11918">
        <ele>1429.5999755859</ele>
        <time>2012-01-24T15:38:46.000Z</time>
      </trkpt>
      <trkpt lat="45.59568" lon="6.11915">
        <ele>1430.4000244141</ele>
        <time>2012-01-24T15:38:52.000Z</time>
      </trkpt>
      <trkpt lat="45.59565" lon="6.11913">
        <ele>1431.4000244141</ele>
        <time>2012-01-24T15:38:56.000Z</time>
      </trkpt>
      <trkpt lat="45.59563" lon="6.11907">
        <ele>1432.4000244141</ele>
        <time>2012-01-24T15:39:01.000Z</time>
      </trkpt>
      <trkpt lat="45.59564" lon="6.11904">
        <ele>1433.4000244141</ele>
        <time>2012-01-24T15:39:06.000Z</time>
      </trkpt>
      <trkpt lat="45.59561" lon="6.119">
        <ele>1434.8000488281</ele>
        <time>2012-01-24T15:39:11.000Z</time>
      </trkpt>
      <trkpt lat="45.59557" lon="6.11895">
        <ele>1436.1999511719</ele>
        <time>2012-01-24T15:39:18.000Z</time>
      </trkpt>
      <trkpt lat="45.59554" lon="6.1189">
        <ele>1437.5999755859</ele>
        <time>2012-01-24T15:39:24.000Z</time>
      </trkpt>
      <trkpt lat="45.59551" lon="6.11886">
        <ele>1439.1999511719</ele>
        <time>2012-01-24T15:39:29.000Z</time>
      </trkpt>
      <trkpt lat="45.59548" lon="6.11881">
        <ele>1440</ele>
        <time>2012-01-24T15:39:34.000Z</time>
      </trkpt>
      <trkpt lat="45.59545" lon="6.11876">
        <ele>1441.5999755859</ele>
        <time>2012-01-24T15:39:39.000Z</time>
      </trkpt>
      <trkpt lat="45.59542" lon="6.11872">
        <ele>1443</ele>
        <time>2012-01-24T15:39:44.000Z</time>
      </trkpt>
      <trkpt lat="45.59539" lon="6.11867">
        <ele>1444</ele>
        <time>2012-01-24T15:39:49.000Z</time>
      </trkpt>
      <trkpt lat="45.59536" lon="6.11862">
        <ele>1444.8000488281</ele>
        <time>2012-01-24T15:39:54.000Z</time>
      </trkpt>
      <trkpt lat="45.59533" lon="6.11856">
        <ele>1445.8000488281</ele>
        <time>2012-01-24T15:39:59.000Z</time>
      </trkpt>
      <trkpt lat="45.5953" lon="6.1185">
        <ele>1446.4000244141</ele>
        <time>2012-01-24T15:40:04.000Z</time>
      </trkpt>
      <trkpt lat="45.59528" lon="6.11846">
        <ele>1447.8000488281</ele>
        <time>2012-01-24T15:40:09.000Z</time>
      </trkpt>
      <trkpt lat="45.59526" lon="6.1184">
        <ele>1447.8000488281</ele>
        <time>2012-01-24T15:40:14.000Z</time>
      </trkpt>
      <trkpt lat="45.59524" lon="6.11834">
        <ele>1449.1999511719</ele>
        <time>2012-01-24T15:40:19.000Z</time>
      </trkpt>
      <trkpt lat="45.59523" lon="6.11827">
        <ele>1450.1999511719</ele>
        <time>2012-01-24T15:40:24.000Z</time>
      </trkpt>
      <trkpt lat="45.59523" lon="6.1182">
        <ele>1451.5999755859</ele>
        <time>2012-01-24T15:40:29.000Z</time>
      </trkpt>
      <trkpt lat="45.59525" lon="6.1181">
        <ele>1453.5999755859</ele>
        <time>2012-01-24T15:40:37.000Z</time>
      </trkpt>
      <trkpt lat="45.59527" lon="6.11804">
        <ele>1455.4000244141</ele>
        <time>2012-01-24T15:40:42.000Z</time>
      </trkpt>
      <trkpt lat="45.59529" lon="6.118">
        <ele>1456.4000244141</ele>
        <time>2012-01-24T15:40:45.000Z</time>
      </trkpt>
      <trkpt lat="45.59532" lon="6.1179">
        <ele>1458.4000244141</ele>
        <time>2012-01-24T15:40:52.000Z</time>
      </trkpt>
      <trkpt lat="45.59535" lon="6.11782">
        <ele>1459.8000488281</ele>
        <time>2012-01-24T15:40:59.000Z</time>
      </trkpt>
      <trkpt lat="45.59537" lon="6.11777">
        <ele>1462.1999511719</ele>
        <time>2012-01-24T15:41:05.000Z</time>
      </trkpt>
      <trkpt lat="45.59538" lon="6.1177">
        <ele>1463.5999755859</ele>
        <time>2012-01-24T15:41:11.000Z</time>
      </trkpt>
      <trkpt lat="45.59541" lon="6.11765">
        <ele>1465.5999755859</ele>
        <time>2012-01-24T15:41:17.000Z</time>
      </trkpt>
      <trkpt lat="45.59543" lon="6.11759">
        <ele>1467</ele>
        <time>2012-01-24T15:41:24.000Z</time>
      </trkpt>
      <trkpt lat="45.59542" lon="6.11752">
        <ele>1468.4000244141</ele>
        <time>2012-01-24T15:41:30.000Z</time>
      </trkpt>
      <trkpt lat="45.59539" lon="6.11745">
        <ele>1469.4000244141</ele>
        <time>2012-01-24T15:41:36.000Z</time>
      </trkpt>
      <trkpt lat="45.59538" lon="6.1174">
        <ele>1470.8000488281</ele>
        <time>2012-01-24T15:41:41.000Z</time>
      </trkpt>
      <trkpt lat="45.59535" lon="6.11732">
        <ele>1472.1999511719</ele>
        <time>2012-01-24T15:41:48.000Z</time>
      </trkpt>
      <trkpt lat="45.59534" lon="6.11726">
        <ele>1473.1999511719</ele>
        <time>2012-01-24T15:41:53.000Z</time>
      </trkpt>
      <trkpt lat="45.59532" lon="6.1172">
        <ele>1474.1999511719</ele>
        <time>2012-01-24T15:41:58.000Z</time>
      </trkpt>
      <trkpt lat="45.59533" lon="6.11715">
        <ele>1475.1999511719</ele>
        <time>2012-01-24T15:42:03.000Z</time>
      </trkpt>
      <trkpt lat="45.59532" lon="6.11709">
        <ele>1476.1999511719</ele>
        <time>2012-01-24T15:42:10.000Z</time>
      </trkpt>
      <trkpt lat="45.59529" lon="6.11707">
        <ele>1477.1999511719</ele>
        <time>2012-01-24T15:42:15.000Z</time>
      </trkpt>
      <trkpt lat="45.59526" lon="6.11702">
        <ele>1478.5999755859</ele>
        <time>2012-01-24T15:42:20.000Z</time>
      </trkpt>
      <trkpt lat="45.59523" lon="6.11698">
        <ele>1480</ele>
        <time>2012-01-24T15:42:25.000Z</time>
      </trkpt>
      <trkpt lat="45.59519" lon="6.11694">
        <ele>1481</ele>
        <time>2012-01-24T15:42:30.000Z</time>
      </trkpt>
      <trkpt lat="45.59515" lon="6.11692">
        <ele>1482.8000488281</ele>
        <time>2012-01-24T15:42:35.000Z</time>
      </trkpt>
      <trkpt lat="45.5951" lon="6.11689">
        <ele>1483.8000488281</ele>
        <time>2012-01-24T15:42:41.000Z</time>
      </trkpt>
      <trkpt lat="45.59506" lon="6.11687">
        <ele>1485.1999511719</ele>
        <time>2012-01-24T15:42:46.000Z</time>
      </trkpt>
      <trkpt lat="45.59503" lon="6.11683">
        <ele>1486.1999511719</ele>
        <time>2012-01-24T15:42:50.000Z</time>
      </trkpt>
      <trkpt lat="45.595" lon="6.1168">
        <ele>1487.1999511719</ele>
        <time>2012-01-24T15:42:55.000Z</time>
      </trkpt>
      <trkpt lat="45.59496" lon="6.11676">
        <ele>1488.1999511719</ele>
        <time>2012-01-24T15:43:01.000Z</time>
      </trkpt>
      <trkpt lat="45.59495" lon="6.11672">
        <ele>1489.1999511719</ele>
        <time>2012-01-24T15:43:05.000Z</time>
      </trkpt>
      <trkpt lat="45.59491" lon="6.11668">
        <ele>1491</ele>
        <time>2012-01-24T15:43:11.000Z</time>
      </trkpt>
      <trkpt lat="45.59489" lon="6.11663">
        <ele>1491.5999755859</ele>
        <time>2012-01-24T15:43:16.000Z</time>
      </trkpt>
      <trkpt lat="45.59488" lon="6.11659">
        <ele>1492.4000244141</ele>
        <time>2012-01-24T15:43:20.000Z</time>
      </trkpt>
      <trkpt lat="45.59486" lon="6.11654">
        <ele>1494</ele>
        <time>2012-01-24T15:43:25.000Z</time>
      </trkpt>
      <trkpt lat="45.59484" lon="6.11648">
        <ele>1495.8000488281</ele>
        <time>2012-01-24T15:43:31.000Z</time>
      </trkpt>
      <trkpt lat="45.59481" lon="6.11643">
        <ele>1497.8000488281</ele>
        <time>2012-01-24T15:43:36.000Z</time>
      </trkpt>
      <trkpt lat="45.59478" lon="6.11643">
        <ele>1498.8000488281</ele>
        <time>2012-01-24T15:43:41.000Z</time>
      </trkpt>
      <trkpt lat="45.59471" lon="6.11647">
        <ele>1499.5999755859</ele>
        <time>2012-01-24T15:43:48.000Z</time>
      </trkpt>
      <trkpt lat="45.59466" lon="6.1165">
        <ele>1501.1999511719</ele>
        <time>2012-01-24T15:43:54.000Z</time>
      </trkpt>
      <trkpt lat="45.59462" lon="6.11653">
        <ele>1502.5999755859</ele>
        <time>2012-01-24T15:43:59.000Z</time>
      </trkpt>
      <trkpt lat="45.59459" lon="6.11655">
        <ele>1503.5999755859</ele>
        <time>2012-01-24T15:44:02.000Z</time>
      </trkpt>
      <trkpt lat="45.59453" lon="6.1166">
        <ele>1505.4000244141</ele>
        <time>2012-01-24T15:44:08.000Z</time>
      </trkpt>
      <trkpt lat="45.59448" lon="6.11664">
        <ele>1507</ele>
        <time>2012-01-24T15:44:12.000Z</time>
      </trkpt>
      <trkpt lat="45.59443" lon="6.11669">
        <ele>1508.4000244141</ele>
        <time>2012-01-24T15:44:19.000Z</time>
      </trkpt>
      <trkpt lat="45.59442" lon="6.1167">
        <ele>1508.4000244141</ele>
        <time>2012-01-24T15:44:20.000Z</time>
      </trkpt>
      <trkpt lat="45.59438" lon="6.11673">
        <ele>1509.8000488281</ele>
        <time>2012-01-24T15:44:26.000Z</time>
      </trkpt>
      <trkpt lat="45.59438" lon="6.11674">
        <ele>1509.8000488281</ele>
        <time>2012-01-24T15:44:32.000Z</time>
      </trkpt>
      <trkpt lat="45.59435" lon="6.11678">
        <ele>1510.1999511719</ele>
        <time>2012-01-24T15:44:40.000Z</time>
      </trkpt>
      <trkpt lat="45.59432" lon="6.1168">
        <ele>1510.8000488281</ele>
        <time>2012-01-24T15:44:46.000Z</time>
      </trkpt>
      <trkpt lat="45.59431" lon="6.11679">
        <ele>1510.8000488281</ele>
        <time>2012-01-24T15:44:50.000Z</time>
      </trkpt>
      <trkpt lat="45.59432" lon="6.11674">
        <ele>1510.8000488281</ele>
        <time>2012-01-24T15:44:54.000Z</time>
      </trkpt>
      <trkpt lat="45.59434" lon="6.11668">
        <ele>1510.8000488281</ele>
        <time>2012-01-24T15:44:59.000Z</time>
      </trkpt>
      <trkpt lat="45.59435" lon="6.11665">
        <ele>1511.1999511719</ele>
        <time>2012-01-24T15:45:05.000Z</time>
      </trkpt>
      <trkpt lat="45.59435" lon="6.11659">
        <ele>1512.1999511719</ele>
        <time>2012-01-24T15:45:10.000Z</time>
      </trkpt>
      <trkpt lat="45.59435" lon="6.11654">
        <ele>1513.5999755859</ele>
        <time>2012-01-24T15:45:16.000Z</time>
      </trkpt>
      <trkpt lat="45.59434" lon="6.11649">
        <ele>1515</ele>
        <time>2012-01-24T15:45:21.000Z</time>
      </trkpt>
      <trkpt lat="45.59432" lon="6.11642">
        <ele>1515.5999755859</ele>
        <time>2012-01-24T15:45:28.000Z</time>
      </trkpt>
      <trkpt lat="45.59432" lon="6.11634">
        <ele>1516.5999755859</ele>
        <time>2012-01-24T15:45:34.000Z</time>
      </trkpt>
      <trkpt lat="45.59431" lon="6.11628">
        <ele>1517</ele>
        <time>2012-01-24T15:45:39.000Z</time>
      </trkpt>
      <trkpt lat="45.5943" lon="6.11623">
        <ele>1517</ele>
        <time>2012-01-24T15:45:43.000Z</time>
      </trkpt>
      <trkpt lat="45.59428" lon="6.11617">
        <ele>1517.4000244141</ele>
        <time>2012-01-24T15:45:48.000Z</time>
      </trkpt>
      <trkpt lat="45.59427" lon="6.11613">
        <ele>1518.4000244141</ele>
        <time>2012-01-24T15:45:51.000Z</time>
      </trkpt>
      <trkpt lat="45.59427" lon="6.11612">
        <ele>1519</ele>
        <time>2012-01-24T15:45:56.000Z</time>
      </trkpt>
      <trkpt lat="45.59426" lon="6.11613">
        <ele>1519</ele>
        <time>2012-01-24T15:46:01.000Z</time>
      </trkpt>
      <trkpt lat="45.59424" lon="6.11617">
        <ele>1520.4000244141</ele>
        <time>2012-01-24T15:46:08.000Z</time>
      </trkpt>
      <trkpt lat="45.59422" lon="6.11615">
        <ele>1521.4000244141</ele>
        <time>2012-01-24T15:46:13.000Z</time>
      </trkpt>
      <trkpt lat="45.5942" lon="6.11609">
        <ele>1521.4000244141</ele>
        <time>2012-01-24T15:46:18.000Z</time>
      </trkpt>
      <trkpt lat="45.59418" lon="6.11605">
        <ele>1521.4000244141</ele>
        <time>2012-01-24T15:46:22.000Z</time>
      </trkpt>
      <trkpt lat="45.59416" lon="6.11602">
        <ele>1523.8000488281</ele>
        <time>2012-01-24T15:46:26.000Z</time>
      </trkpt>
      <trkpt lat="45.59414" lon="6.11598">
        <ele>1525.5999755859</ele>
        <time>2012-01-24T15:46:31.000Z</time>
      </trkpt>
      <trkpt lat="45.59411" lon="6.11594">
        <ele>1526.5999755859</ele>
        <time>2012-01-24T15:46:36.000Z</time>
      </trkpt>
      <trkpt lat="45.59409" lon="6.1159">
        <ele>1528</ele>
        <time>2012-01-24T15:46:41.000Z</time>
      </trkpt>
      <trkpt lat="45.59405" lon="6.11585">
        <ele>1530</ele>
        <time>2012-01-24T15:46:47.000Z</time>
      </trkpt>
      <trkpt lat="45.59402" lon="6.11583">
        <ele>1531.4000244141</ele>
        <time>2012-01-24T15:46:52.000Z</time>
      </trkpt>
      <trkpt lat="45.594" lon="6.11584">
        <ele>1531.4000244141</ele>
        <time>2012-01-24T15:46:56.000Z</time>
      </trkpt>
      <trkpt lat="45.59398" lon="6.1159">
        <ele>1533.4000244141</ele>
        <time>2012-01-24T15:47:03.000Z</time>
      </trkpt>
      <trkpt lat="45.59397" lon="6.11594">
        <ele>1535.1999511719</ele>
        <time>2012-01-24T15:47:08.000Z</time>
      </trkpt>
      <trkpt lat="45.59396" lon="6.11599">
        <ele>1536.1999511719</ele>
        <time>2012-01-24T15:47:13.000Z</time>
      </trkpt>
      <trkpt lat="45.59395" lon="6.11603">
        <ele>1537.1999511719</ele>
        <time>2012-01-24T15:47:17.000Z</time>
      </trkpt>
      <trkpt lat="45.59394" lon="6.11607">
        <ele>1538.1999511719</ele>
        <time>2012-01-24T15:47:21.000Z</time>
      </trkpt>
      <trkpt lat="45.59392" lon="6.11611">
        <ele>1539.1999511719</ele>
        <time>2012-01-24T15:47:26.000Z</time>
      </trkpt>
      <trkpt lat="45.59388" lon="6.11614">
        <ele>1540</ele>
        <time>2012-01-24T15:47:32.000Z</time>
      </trkpt>
      <trkpt lat="45.59384" lon="6.11614">
        <ele>1541</ele>
        <time>2012-01-24T15:47:37.000Z</time>
      </trkpt>
      <trkpt lat="45.59382" lon="6.11613">
        <ele>1541.5999755859</ele>
        <time>2012-01-24T15:47:42.000Z</time>
      </trkpt>
      <trkpt lat="45.59382" lon="6.11613">
        <ele>1541</ele>
        <time>2012-01-24T15:47:47.000Z</time>
      </trkpt>
      <trkpt lat="45.59383" lon="6.11613">
        <ele>1542.4000244141</ele>
        <time>2012-01-24T15:47:53.000Z</time>
      </trkpt>
      <trkpt lat="45.59383" lon="6.11614">
        <ele>1543</ele>
        <time>2012-01-24T15:48:00.000Z</time>
      </trkpt>
      <trkpt lat="45.59382" lon="6.11615">
        <ele>1542</ele>
        <time>2012-01-24T15:48:11.000Z</time>
      </trkpt>
      <trkpt lat="45.59383" lon="6.11615">
        <ele>1542.4000244141</ele>
        <time>2012-01-24T15:48:18.000Z</time>
      </trkpt>
      <trkpt lat="45.59382" lon="6.11614">
        <ele>1543</ele>
        <time>2012-01-24T15:48:28.000Z</time>
      </trkpt>
      <trkpt lat="45.59383" lon="6.11614">
        <ele>1544</ele>
        <time>2012-01-24T15:48:32.000Z</time>
      </trkpt>
      <trkpt lat="45.59382" lon="6.11614">
        <ele>1544.4000244141</ele>
        <time>2012-01-24T15:48:38.000Z</time>
      </trkpt>
      <trkpt lat="45.59381" lon="6.11615">
        <ele>1544.8000488281</ele>
        <time>2012-01-24T15:48:45.000Z</time>
      </trkpt>
      <trkpt lat="45.59382" lon="6.11614">
        <ele>1543</ele>
        <time>2012-01-24T15:49:05.000Z</time>
      </trkpt>
      <trkpt lat="45.59384" lon="6.11612">
        <ele>1542.4000244141</ele>
        <time>2012-01-24T15:49:09.000Z</time>
      </trkpt>
      <trkpt lat="45.59384" lon="6.11612">
        <ele>1542.4000244141</ele>
        <time>2012-01-24T15:49:10.000Z</time>
      </trkpt>
      <trkpt lat="45.59384" lon="6.11612">
        <ele>1542.4000244141</ele>
        <time>2012-01-24T15:49:10.000Z</time>
      </trkpt>
      <trkpt lat="45.59385" lon="6.11611">
        <ele>1542</ele>
        <time>2012-01-24T15:49:11.000Z</time>
      </trkpt>
      <trkpt lat="45.59391" lon="6.11599">
        <ele>1539.5999755859</ele>
        <time>2012-01-24T15:49:16.000Z</time>
      </trkpt>
      <trkpt lat="45.59398" lon="6.11585">
        <ele>1534.8000488281</ele>
        <time>2012-01-24T15:49:19.000Z</time>
      </trkpt>
      <trkpt lat="45.59404" lon="6.11587">
        <ele>1531.4000244141</ele>
        <time>2012-01-24T15:49:21.000Z</time>
      </trkpt>
      <trkpt lat="45.59411" lon="6.11598">
        <ele>1528.5999755859</ele>
        <time>2012-01-24T15:49:23.000Z</time>
      </trkpt>
      <trkpt lat="45.59416" lon="6.11612">
        <ele>1525.1999511719</ele>
        <time>2012-01-24T15:49:25.000Z</time>
      </trkpt>
      <trkpt lat="45.59423" lon="6.11635">
        <ele>1520.8000488281</ele>
        <time>2012-01-24T15:49:29.000Z</time>
      </trkpt>
      <trkpt lat="45.59427" lon="6.11638">
        <ele>1518.4000244141</ele>
        <time>2012-01-24T15:49:31.000Z</time>
      </trkpt>
      <trkpt lat="45.59437" lon="6.11643">
        <ele>1512.5999755859</ele>
        <time>2012-01-24T15:49:35.000Z</time>
      </trkpt>
      <trkpt lat="45.59448" lon="6.11637">
        <ele>1508.8000488281</ele>
        <time>2012-01-24T15:49:38.000Z</time>
      </trkpt>
      <trkpt lat="45.59462" lon="6.11638">
        <ele>1501.5999755859</ele>
        <time>2012-01-24T15:49:42.000Z</time>
      </trkpt>
      <trkpt lat="45.59465" lon="6.11641">
        <ele>1500.5999755859</ele>
        <time>2012-01-24T15:49:43.000Z</time>
      </trkpt>
      <trkpt lat="45.59484" lon="6.11647">
        <ele>1494.4000244141</ele>
        <time>2012-01-24T15:49:47.000Z</time>
      </trkpt>
      <trkpt lat="45.59493" lon="6.11652">
        <ele>1491.5999755859</ele>
        <time>2012-01-24T15:49:49.000Z</time>
      </trkpt>
      <trkpt lat="45.59501" lon="6.11671">
        <ele>1485.8000488281</ele>
        <time>2012-01-24T15:49:52.000Z</time>
      </trkpt>
      <trkpt lat="45.59516" lon="6.11685">
        <ele>1480.4000244141</ele>
        <time>2012-01-24T15:49:55.000Z</time>
      </trkpt>
      <trkpt lat="45.59526" lon="6.11696">
        <ele>1477.5999755859</ele>
        <time>2012-01-24T15:49:57.000Z</time>
      </trkpt>
      <trkpt lat="45.59534" lon="6.11708">
        <ele>1473.1999511719</ele>
        <time>2012-01-24T15:49:59.000Z</time>
      </trkpt>
      <trkpt lat="45.59548" lon="6.11743">
        <ele>1467.4000244141</ele>
        <time>2012-01-24T15:50:03.000Z</time>
      </trkpt>
      <trkpt lat="45.59554" lon="6.11759">
        <ele>1464.5999755859</ele>
        <time>2012-01-24T15:50:05.000Z</time>
      </trkpt>
      <trkpt lat="45.5955" lon="6.11798">
        <ele>1457</ele>
        <time>2012-01-24T15:50:10.000Z</time>
      </trkpt>
      <trkpt lat="45.59527" lon="6.11827">
        <ele>1447.8000488281</ele>
        <time>2012-01-24T15:50:15.000Z</time>
      </trkpt>
      <trkpt lat="45.5953" lon="6.11841">
        <ele>1444.4000244141</ele>
        <time>2012-01-24T15:50:17.000Z</time>
      </trkpt>
      <trkpt lat="45.59537" lon="6.11855">
        <ele>1441.5999755859</ele>
        <time>2012-01-24T15:50:19.000Z</time>
      </trkpt>
      <trkpt lat="45.59554" lon="6.11875">
        <ele>1437.5999755859</ele>
        <time>2012-01-24T15:50:23.000Z</time>
      </trkpt>
      <trkpt lat="45.59572" lon="6.11888">
        <ele>1434.8000488281</ele>
        <time>2012-01-24T15:50:27.000Z</time>
      </trkpt>
      <trkpt lat="45.59585" lon="6.119">
        <ele>1431</ele>
        <time>2012-01-24T15:50:31.000Z</time>
      </trkpt>
      <trkpt lat="45.59589" lon="6.1191">
        <ele>1427.5999755859</ele>
        <time>2012-01-24T15:50:34.000Z</time>
      </trkpt>
      <trkpt lat="45.59587" lon="6.11917">
        <ele>1425.1999511719</ele>
        <time>2012-01-24T15:50:37.000Z</time>
      </trkpt>
      <trkpt lat="45.59588" lon="6.11916">
        <ele>1425.1999511719</ele>
        <time>2012-01-24T15:50:43.000Z</time>
      </trkpt>
      <trkpt lat="45.59588" lon="6.11917">
        <ele>1425.5999755859</ele>
        <time>2012-01-24T15:50:49.000Z</time>
      </trkpt>
      <trkpt lat="45.59584" lon="6.11921">
        <ele>1424.8000488281</ele>
        <time>2012-01-24T15:50:53.000Z</time>
      </trkpt>
      <trkpt lat="45.59571" lon="6.11934">
        <ele>1422.4000244141</ele>
        <time>2012-01-24T15:50:59.000Z</time>
      </trkpt>
      <trkpt lat="45.59569" lon="6.11935">
        <ele>1421.8000488281</ele>
        <time>2012-01-24T15:51:00.000Z</time>
      </trkpt>
      <trkpt lat="45.59563" lon="6.11942">
        <ele>1419.4000244141</ele>
        <time>2012-01-24T15:51:03.000Z</time>
      </trkpt>
      <trkpt lat="45.59564" lon="6.1195">
        <ele>1416.5999755859</ele>
        <time>2012-01-24T15:51:06.000Z</time>
      </trkpt>
      <trkpt lat="45.59582" lon="6.11958">
        <ele>1413.1999511719</ele>
        <time>2012-01-24T15:51:10.000Z</time>
      </trkpt>
      <trkpt lat="45.59597" lon="6.11967">
        <ele>1409.8000488281</ele>
        <time>2012-01-24T15:51:14.000Z</time>
      </trkpt>
      <trkpt lat="45.59601" lon="6.1197">
        <ele>1408.4000244141</ele>
        <time>2012-01-24T15:51:15.000Z</time>
      </trkpt>
      <trkpt lat="45.59611" lon="6.11974">
        <ele>1406.4000244141</ele>
        <time>2012-01-24T15:51:19.000Z</time>
      </trkpt>
      <trkpt lat="45.59611" lon="6.11974">
        <ele>1406.4000244141</ele>
        <time>2012-01-24T15:51:25.000Z</time>
      </trkpt>
      <trkpt lat="45.5961" lon="6.11983">
        <ele>1404.5999755859</ele>
        <time>2012-01-24T15:51:28.000Z</time>
      </trkpt>
      <trkpt lat="45.59602" lon="6.11988">
        <ele>1403</ele>
        <time>2012-01-24T15:51:30.000Z</time>
      </trkpt>
      <trkpt lat="45.59595" lon="6.11992">
        <ele>1401.5999755859</ele>
        <time>2012-01-24T15:51:32.000Z</time>
      </trkpt>
      <trkpt lat="45.59596" lon="6.12005">
        <ele>1398.1999511719</ele>
        <time>2012-01-24T15:51:35.000Z</time>
      </trkpt>
      <trkpt lat="45.59602" lon="6.12018">
        <ele>1395</ele>
        <time>2012-01-24T15:51:38.000Z</time>
      </trkpt>
      <trkpt lat="45.59598" lon="6.12019">
        <ele>1394.4000244141</ele>
        <time>2012-01-24T15:51:39.000Z</time>
      </trkpt>
      <trkpt lat="45.59594" lon="6.12034">
        <ele>1389.5999755859</ele>
        <time>2012-01-24T15:51:43.000Z</time>
      </trkpt>
      <trkpt lat="45.59597" lon="6.12038">
        <ele>1389.1999511719</ele>
        <time>2012-01-24T15:51:44.000Z</time>
      </trkpt>
      <trkpt lat="45.59613" lon="6.12061">
        <ele>1382.8000488281</ele>
        <time>2012-01-24T15:51:50.000Z</time>
      </trkpt>
      <trkpt lat="45.59619" lon="6.12068">
        <ele>1381</ele>
        <time>2012-01-24T15:51:53.000Z</time>
      </trkpt>
      <trkpt lat="45.59613" lon="6.1207">
        <ele>1378</ele>
        <time>2012-01-24T15:51:56.000Z</time>
      </trkpt>
      <trkpt lat="45.59592" lon="6.12065">
        <ele>1375.1999511719</ele>
        <time>2012-01-24T15:52:00.000Z</time>
      </trkpt>
      <trkpt lat="45.59591" lon="6.12063">
        <ele>1375.1999511719</ele>
        <time>2012-01-24T15:52:02.000Z</time>
      </trkpt>
      <trkpt lat="45.5959" lon="6.12063">
        <ele>1375.1999511719</ele>
        <time>2012-01-24T15:52:07.000Z</time>
      </trkpt>
      <trkpt lat="45.59589" lon="6.12063">
        <ele>1377.1999511719</ele>
        <time>2012-01-24T15:52:26.000Z</time>
      </trkpt>
      <trkpt lat="45.59579" lon="6.12065">
        <ele>1374.8000488281</ele>
        <time>2012-01-24T15:52:30.000Z</time>
      </trkpt>
      <trkpt lat="45.59568" lon="6.12064">
        <ele>1371.8000488281</ele>
        <time>2012-01-24T15:52:33.000Z</time>
      </trkpt>
      <trkpt lat="45.59555" lon="6.12065">
        <ele>1368.4000244141</ele>
        <time>2012-01-24T15:52:37.000Z</time>
      </trkpt>
      <trkpt lat="45.59538" lon="6.12067">
        <ele>1364.5999755859</ele>
        <time>2012-01-24T15:52:41.000Z</time>
      </trkpt>
      <trkpt lat="45.59529" lon="6.12065">
        <ele>1360.8000488281</ele>
        <time>2012-01-24T15:52:45.000Z</time>
      </trkpt>
      <trkpt lat="45.59527" lon="6.12065">
        <ele>1359.8000488281</ele>
        <time>2012-01-24T15:52:46.000Z</time>
      </trkpt>
      <trkpt lat="45.59524" lon="6.12065">
        <ele>1358.4000244141</ele>
        <time>2012-01-24T15:52:52.000Z</time>
      </trkpt>
      <trkpt lat="45.59524" lon="6.12064">
        <ele>1358.8000488281</ele>
        <time>2012-01-24T15:53:02.000Z</time>
      </trkpt>
      <trkpt lat="45.59519" lon="6.12067">
        <ele>1358.4000244141</ele>
        <time>2012-01-24T15:53:05.000Z</time>
      </trkpt>
      <trkpt lat="45.59511" lon="6.12069">
        <ele>1356.4000244141</ele>
        <time>2012-01-24T15:53:08.000Z</time>
      </trkpt>
      <trkpt lat="45.59493" lon="6.12069">
        <ele>1352.5999755859</ele>
        <time>2012-01-24T15:53:12.000Z</time>
      </trkpt>
      <trkpt lat="45.59482" lon="6.12072">
        <ele>1349.8000488281</ele>
        <time>2012-01-24T15:53:14.000Z</time>
      </trkpt>
      <trkpt lat="45.59469" lon="6.12068">
        <ele>1346.8000488281</ele>
        <time>2012-01-24T15:53:17.000Z</time>
      </trkpt>
      <trkpt lat="45.59448" lon="6.12062">
        <ele>1342.5999755859</ele>
        <time>2012-01-24T15:53:21.000Z</time>
      </trkpt>
      <trkpt lat="45.59429" lon="6.12067">
        <ele>1333.4000244141</ele>
        <time>2012-01-24T15:53:25.000Z</time>
      </trkpt>
      <trkpt lat="45.59394" lon="6.12071">
        <ele>1328</ele>
        <time>2012-01-24T15:53:30.000Z</time>
      </trkpt>
      <trkpt lat="45.59374" lon="6.12075">
        <ele>1326.1999511719</ele>
        <time>2012-01-24T15:53:34.000Z</time>
      </trkpt>
      <trkpt lat="45.5937" lon="6.1208">
        <ele>1324.1999511719</ele>
        <time>2012-01-24T15:53:37.000Z</time>
      </trkpt>
      <trkpt lat="45.5938" lon="6.12092">
        <ele>1319</ele>
        <time>2012-01-24T15:53:41.000Z</time>
      </trkpt>
      <trkpt lat="45.5939" lon="6.12104">
        <ele>1315.5999755859</ele>
        <time>2012-01-24T15:53:44.000Z</time>
      </trkpt>
      <trkpt lat="45.59384" lon="6.12108">
        <ele>1313.1999511719</ele>
        <time>2012-01-24T15:53:46.000Z</time>
      </trkpt>
      <trkpt lat="45.59383" lon="6.1212">
        <ele>1309.4000244141</ele>
        <time>2012-01-24T15:53:49.000Z</time>
      </trkpt>
      <trkpt lat="45.59378" lon="6.12125">
        <ele>1305.5999755859</ele>
        <time>2012-01-24T15:53:51.000Z</time>
      </trkpt>
      <trkpt lat="45.59368" lon="6.12133">
        <ele>1300.1999511719</ele>
        <time>2012-01-24T15:53:54.000Z</time>
      </trkpt>
      <trkpt lat="45.59371" lon="6.12144">
        <ele>1296.8000488281</ele>
        <time>2012-01-24T15:53:56.000Z</time>
      </trkpt>
      <trkpt lat="45.59365" lon="6.12148">
        <ele>1293.4000244141</ele>
        <time>2012-01-24T15:53:58.000Z</time>
      </trkpt>
      <trkpt lat="45.59361" lon="6.12167">
        <ele>1286.1999511719</ele>
        <time>2012-01-24T15:54:02.000Z</time>
      </trkpt>
      <trkpt lat="45.59359" lon="6.12173">
        <ele>1282</ele>
        <time>2012-01-24T15:54:05.000Z</time>
      </trkpt>
      <trkpt lat="45.59357" lon="6.12174">
        <ele>1281</ele>
        <time>2012-01-24T15:54:09.000Z</time>
      </trkpt>
      <trkpt lat="45.59354" lon="6.12189">
        <ele>1277.1999511719</ele>
        <time>2012-01-24T15:54:12.000Z</time>
      </trkpt>
      <trkpt lat="45.5936" lon="6.12201">
        <ele>1274.8000488281</ele>
        <time>2012-01-24T15:54:14.000Z</time>
      </trkpt>
      <trkpt lat="45.59362" lon="6.12209">
        <ele>1271.8000488281</ele>
        <time>2012-01-24T15:54:16.000Z</time>
      </trkpt>
      <trkpt lat="45.59356" lon="6.12214">
        <ele>1269</ele>
        <time>2012-01-24T15:54:18.000Z</time>
      </trkpt>
      <trkpt lat="45.59357" lon="6.12225">
        <ele>1265.5999755859</ele>
        <time>2012-01-24T15:54:20.000Z</time>
      </trkpt>
      <trkpt lat="45.59363" lon="6.12232">
        <ele>1262.1999511719</ele>
        <time>2012-01-24T15:54:23.000Z</time>
      </trkpt>
      <trkpt lat="45.5936" lon="6.12239">
        <ele>1259.4000244141</ele>
        <time>2012-01-24T15:54:25.000Z</time>
      </trkpt>
      <trkpt lat="45.59357" lon="6.12239">
        <ele>1258.8000488281</ele>
        <time>2012-01-24T15:54:26.000Z</time>
      </trkpt>
      <trkpt lat="45.59352" lon="6.12249">
        <ele>1254.5999755859</ele>
        <time>2012-01-24T15:54:30.000Z</time>
      </trkpt>
      <trkpt lat="45.59355" lon="6.12253">
        <ele>1253.1999511719</ele>
        <time>2012-01-24T15:54:31.000Z</time>
      </trkpt>
      <trkpt lat="45.59357" lon="6.12256">
        <ele>1252.5999755859</ele>
        <time>2012-01-24T15:54:34.000Z</time>
      </trkpt>
      <trkpt lat="45.59371" lon="6.12269">
        <ele>1247.4000244141</ele>
        <time>2012-01-24T15:54:38.000Z</time>
      </trkpt>
      <trkpt lat="45.59372" lon="6.12278">
        <ele>1244.4000244141</ele>
        <time>2012-01-24T15:54:40.000Z</time>
      </trkpt>
      <trkpt lat="45.59357" lon="6.12288">
        <ele>1240.5999755859</ele>
        <time>2012-01-24T15:54:43.000Z</time>
      </trkpt>
      <trkpt lat="45.59348" lon="6.12302">
        <ele>1236.1999511719</ele>
        <time>2012-01-24T15:54:47.000Z</time>
      </trkpt>
      <trkpt lat="45.59357" lon="6.12314">
        <ele>1232.4000244141</ele>
        <time>2012-01-24T15:54:50.000Z</time>
      </trkpt>
      <trkpt lat="45.59349" lon="6.12323">
        <ele>1229</ele>
        <time>2012-01-24T15:54:52.000Z</time>
      </trkpt>
      <trkpt lat="45.59349" lon="6.12334">
        <ele>1225.1999511719</ele>
        <time>2012-01-24T15:54:54.000Z</time>
      </trkpt>
      <trkpt lat="45.59354" lon="6.12345">
        <ele>1221</ele>
        <time>2012-01-24T15:54:57.000Z</time>
      </trkpt>
      <trkpt lat="45.59343" lon="6.1236">
        <ele>1215.1999511719</ele>
        <time>2012-01-24T15:55:00.000Z</time>
      </trkpt>
      <trkpt lat="45.59332" lon="6.12375">
        <ele>1211.1999511719</ele>
        <time>2012-01-24T15:55:03.000Z</time>
      </trkpt>
      <trkpt lat="45.59333" lon="6.12392">
        <ele>1207</ele>
        <time>2012-01-24T15:55:05.000Z</time>
      </trkpt>
      <trkpt lat="45.59337" lon="6.12394">
        <ele>1206.4000244141</ele>
        <time>2012-01-24T15:55:07.000Z</time>
      </trkpt>
      <trkpt lat="45.59337" lon="6.12393">
        <ele>1207</ele>
        <time>2012-01-24T15:55:12.000Z</time>
      </trkpt>
      <trkpt lat="45.59338" lon="6.12394">
        <ele>1206.4000244141</ele>
        <time>2012-01-24T15:55:19.000Z</time>
      </trkpt>
      <trkpt lat="45.59337" lon="6.12396">
        <ele>1206</ele>
        <time>2012-01-24T15:55:20.000Z</time>
      </trkpt>
      <trkpt lat="45.59326" lon="6.12407">
        <ele>1202.5999755859</ele>
        <time>2012-01-24T15:55:24.000Z</time>
      </trkpt>
      <trkpt lat="45.59324" lon="6.12418">
        <ele>1198.4000244141</ele>
        <time>2012-01-24T15:55:27.000Z</time>
      </trkpt>
      <trkpt lat="45.59331" lon="6.1243">
        <ele>1194.4000244141</ele>
        <time>2012-01-24T15:55:30.000Z</time>
      </trkpt>
      <trkpt lat="45.59326" lon="6.12438">
        <ele>1189.5999755859</ele>
        <time>2012-01-24T15:55:32.000Z</time>
      </trkpt>
      <trkpt lat="45.59331" lon="6.12445">
        <ele>1185.8000488281</ele>
        <time>2012-01-24T15:55:34.000Z</time>
      </trkpt>
      <trkpt lat="45.59332" lon="6.12454">
        <ele>1180.5999755859</ele>
        <time>2012-01-24T15:55:36.000Z</time>
      </trkpt>
      <trkpt lat="45.59327" lon="6.12466">
        <ele>1173.8000488281</ele>
        <time>2012-01-24T15:55:39.000Z</time>
      </trkpt>
      <trkpt lat="45.59331" lon="6.1248">
        <ele>1166.1999511719</ele>
        <time>2012-01-24T15:55:42.000Z</time>
      </trkpt>
      <trkpt lat="45.59329" lon="6.12481">
        <ele>1165.1999511719</ele>
        <time>2012-01-24T15:55:43.000Z</time>
      </trkpt>
      <trkpt lat="45.59332" lon="6.12481">
        <ele>1166.1999511719</ele>
        <time>2012-01-24T15:55:51.000Z</time>
      </trkpt>
      <trkpt lat="45.59332" lon="6.12482">
        <ele>1168.5999755859</ele>
        <time>2012-01-24T15:56:00.000Z</time>
      </trkpt>
      <trkpt lat="45.59333" lon="6.12482">
        <ele>1169</ele>
        <time>2012-01-24T15:56:05.000Z</time>
      </trkpt>
      <trkpt lat="45.59339" lon="6.12489">
        <ele>1167.5999755859</ele>
        <time>2012-01-24T15:56:09.000Z</time>
      </trkpt>
      <trkpt lat="45.59346" lon="6.12496">
        <ele>1165.1999511719</ele>
        <time>2012-01-24T15:56:13.000Z</time>
      </trkpt>
      <trkpt lat="45.59352" lon="6.12501">
        <ele>1164.1999511719</ele>
        <time>2012-01-24T15:56:15.000Z</time>
      </trkpt>
      <trkpt lat="45.59348" lon="6.1251">
        <ele>1161.4000244141</ele>
        <time>2012-01-24T15:56:18.000Z</time>
      </trkpt>
      <trkpt lat="45.59348" lon="6.12519">
        <ele>1158.4000244141</ele>
        <time>2012-01-24T15:56:20.000Z</time>
      </trkpt>
      <trkpt lat="45.59343" lon="6.1253">
        <ele>1151.5999755859</ele>
        <time>2012-01-24T15:56:24.000Z</time>
      </trkpt>
      <trkpt lat="45.59342" lon="6.12542">
        <ele>1147.8000488281</ele>
        <time>2012-01-24T15:56:26.000Z</time>
      </trkpt>
      <trkpt lat="45.59347" lon="6.12549">
        <ele>1145.4000244141</ele>
        <time>2012-01-24T15:56:28.000Z</time>
      </trkpt>
      <trkpt lat="45.59343" lon="6.1255">
        <ele>1142.5999755859</ele>
        <time>2012-01-24T15:56:30.000Z</time>
      </trkpt>
      <trkpt lat="45.59345" lon="6.12558">
        <ele>1138.8000488281</ele>
        <time>2012-01-24T15:56:33.000Z</time>
      </trkpt>
      <trkpt lat="45.59349" lon="6.12576">
        <ele>1134.8000488281</ele>
        <time>2012-01-24T15:56:37.000Z</time>
      </trkpt>
      <trkpt lat="45.5935" lon="6.12588">
        <ele>1132.4000244141</ele>
        <time>2012-01-24T15:56:39.000Z</time>
      </trkpt>
      <trkpt lat="45.5935" lon="6.12599">
        <ele>1129.5999755859</ele>
        <time>2012-01-24T15:56:44.000Z</time>
      </trkpt>
      <trkpt lat="45.59341" lon="6.12594">
        <ele>1127.5999755859</ele>
        <time>2012-01-24T15:56:46.000Z</time>
      </trkpt>
      <trkpt lat="45.59304" lon="6.1259">
        <ele>1119</ele>
        <time>2012-01-24T15:56:52.000Z</time>
      </trkpt>
      <trkpt lat="45.59297" lon="6.12593">
        <ele>1118</ele>
        <time>2012-01-24T15:56:53.000Z</time>
      </trkpt>
      <trkpt lat="45.59277" lon="6.12604">
        <ele>1115.5999755859</ele>
        <time>2012-01-24T15:56:57.000Z</time>
      </trkpt>
      <trkpt lat="45.59271" lon="6.126">
        <ele>1114.5999755859</ele>
        <time>2012-01-24T15:57:00.000Z</time>
      </trkpt>
      <trkpt lat="45.59266" lon="6.12593">
        <ele>1113.1999511719</ele>
        <time>2012-01-24T15:57:02.000Z</time>
      </trkpt>
      <trkpt lat="45.59243" lon="6.12583">
        <ele>1109.8000488281</ele>
        <time>2012-01-24T15:57:07.000Z</time>
      </trkpt>
      <trkpt lat="45.59228" lon="6.12595">
        <ele>1107.4000244141</ele>
        <time>2012-01-24T15:57:10.000Z</time>
      </trkpt>
      <trkpt lat="45.59214" lon="6.12602">
        <ele>1106</ele>
        <time>2012-01-24T15:57:13.000Z</time>
      </trkpt>
      <trkpt lat="45.59203" lon="6.12596">
        <ele>1104.5999755859</ele>
        <time>2012-01-24T15:57:16.000Z</time>
      </trkpt>
      <trkpt lat="45.59193" lon="6.12595">
        <ele>1104.1999511719</ele>
        <time>2012-01-24T15:57:19.000Z</time>
      </trkpt>
      <trkpt lat="45.59175" lon="6.12602">
        <ele>1102.5999755859</ele>
        <time>2012-01-24T15:57:25.000Z</time>
      </trkpt>
      <trkpt lat="45.59171" lon="6.12605">
        <ele>1102.1999511719</ele>
        <time>2012-01-24T15:57:26.000Z</time>
      </trkpt>
      <trkpt lat="45.59149" lon="6.12633">
        <ele>1099.8000488281</ele>
        <time>2012-01-24T15:57:33.000Z</time>
      </trkpt>
      <trkpt lat="45.59145" lon="6.12637">
        <ele>1099.4000244141</ele>
        <time>2012-01-24T15:57:34.000Z</time>
      </trkpt>
      <trkpt lat="45.59146" lon="6.12645">
        <ele>1097</ele>
        <time>2012-01-24T15:57:37.000Z</time>
      </trkpt>
      <trkpt lat="45.59157" lon="6.12638">
        <ele>1096</ele>
        <time>2012-01-24T15:57:40.000Z</time>
      </trkpt>
      <trkpt lat="45.59182" lon="6.12631">
        <ele>1093</ele>
        <time>2012-01-24T15:57:46.000Z</time>
      </trkpt>
      <trkpt lat="45.59201" lon="6.12639">
        <ele>1090.5999755859</ele>
        <time>2012-01-24T15:57:50.000Z</time>
      </trkpt>
      <trkpt lat="45.59216" lon="6.12649">
        <ele>1088.8000488281</ele>
        <time>2012-01-24T15:57:54.000Z</time>
      </trkpt>
      <trkpt lat="45.59219" lon="6.12653">
        <ele>1087.1999511719</ele>
        <time>2012-01-24T15:57:57.000Z</time>
      </trkpt>
      <trkpt lat="45.59222" lon="6.12653">
        <ele>1087.8000488281</ele>
        <time>2012-01-24T15:58:05.000Z</time>
      </trkpt>
      <trkpt lat="45.59223" lon="6.12652">
        <ele>1088.8000488281</ele>
        <time>2012-01-24T15:58:11.000Z</time>
      </trkpt>
      <trkpt lat="45.59228" lon="6.12652">
        <ele>1088.1999511719</ele>
        <time>2012-01-24T15:58:15.000Z</time>
      </trkpt>
      <trkpt lat="45.59231" lon="6.12653">
        <ele>1087.1999511719</ele>
        <time>2012-01-24T15:58:16.000Z</time>
      </trkpt>
      <trkpt lat="45.59231" lon="6.12676">
        <ele>1080.5999755859</ele>
        <time>2012-01-24T15:58:20.000Z</time>
      </trkpt>
      <trkpt lat="45.59243" lon="6.1269">
        <ele>1078.1999511719</ele>
        <time>2012-01-24T15:58:23.000Z</time>
      </trkpt>
      <trkpt lat="45.59232" lon="6.12692">
        <ele>1075.8000488281</ele>
        <time>2012-01-24T15:58:25.000Z</time>
      </trkpt>
      <trkpt lat="45.59228" lon="6.12702">
        <ele>1072.4000244141</ele>
        <time>2012-01-24T15:58:27.000Z</time>
      </trkpt>
      <trkpt lat="45.59234" lon="6.12713">
        <ele>1068.5999755859</ele>
        <time>2012-01-24T15:58:29.000Z</time>
      </trkpt>
      <trkpt lat="45.59229" lon="6.12721">
        <ele>1064.5999755859</ele>
        <time>2012-01-24T15:58:31.000Z</time>
      </trkpt>
      <trkpt lat="45.59225" lon="6.12733">
        <ele>1058.4000244141</ele>
        <time>2012-01-24T15:58:34.000Z</time>
      </trkpt>
      <trkpt lat="45.59223" lon="6.12745">
        <ele>1054.1999511719</ele>
        <time>2012-01-24T15:58:37.000Z</time>
      </trkpt>
      <trkpt lat="45.59218" lon="6.12754">
        <ele>1050.8000488281</ele>
        <time>2012-01-24T15:58:40.000Z</time>
      </trkpt>
      <trkpt lat="45.59216" lon="6.12766">
        <ele>1049.4000244141</ele>
        <time>2012-01-24T15:58:42.000Z</time>
      </trkpt>
      <trkpt lat="45.59229" lon="6.12772">
        <ele>1043.5999755859</ele>
        <time>2012-01-24T15:58:45.000Z</time>
      </trkpt>
      <trkpt lat="45.59228" lon="6.12781">
        <ele>1039.8000488281</ele>
        <time>2012-01-24T15:58:47.000Z</time>
      </trkpt>
      <trkpt lat="45.59223" lon="6.12796">
        <ele>1031.5999755859</ele>
        <time>2012-01-24T15:58:51.000Z</time>
      </trkpt>
      <trkpt lat="45.59224" lon="6.12808">
        <ele>1027.5999755859</ele>
        <time>2012-01-24T15:58:53.000Z</time>
      </trkpt>
      <trkpt lat="45.59235" lon="6.12825">
        <ele>1023.4000244141</ele>
        <time>2012-01-24T15:58:56.000Z</time>
      </trkpt>
      <trkpt lat="45.59251" lon="6.12834">
        <ele>1020.4000244141</ele>
        <time>2012-01-24T15:58:59.000Z</time>
      </trkpt>
      <trkpt lat="45.59251" lon="6.12837">
        <ele>1019</ele>
        <time>2012-01-24T15:59:00.000Z</time>
      </trkpt>
      <trkpt lat="45.59246" lon="6.12863">
        <ele>1010.799987793</ele>
        <time>2012-01-24T15:59:04.000Z</time>
      </trkpt>
      <trkpt lat="45.59235" lon="6.12874">
        <ele>1007.4000244141</ele>
        <time>2012-01-24T15:59:06.000Z</time>
      </trkpt>
      <trkpt lat="45.59224" lon="6.12906">
        <ele>997.40002441406</ele>
        <time>2012-01-24T15:59:11.000Z</time>
      </trkpt>
      <trkpt lat="45.59223" lon="6.12931">
        <ele>991.20001220703</ele>
        <time>2012-01-24T15:59:14.000Z</time>
      </trkpt>
      <trkpt lat="45.5922" lon="6.12949">
        <ele>986.40002441406</ele>
        <time>2012-01-24T15:59:17.000Z</time>
      </trkpt>
      <trkpt lat="45.59217" lon="6.12959">
        <ele>984</ele>
        <time>2012-01-24T15:59:21.000Z</time>
      </trkpt>
      <trkpt lat="45.59207" lon="6.12984">
        <ele>982</ele>
        <time>2012-01-24T15:59:26.000Z</time>
      </trkpt>
      <trkpt lat="45.59207" lon="6.1299">
        <ele>981</ele>
        <time>2012-01-24T15:59:27.000Z</time>
      </trkpt>
      <trkpt lat="45.59213" lon="6.13016">
        <ele>978.59997558594</ele>
        <time>2012-01-24T15:59:31.000Z</time>
      </trkpt>
      <trkpt lat="45.59188" lon="6.13071">
        <ele>965.20001220703</ele>
        <time>2012-01-24T15:59:37.000Z</time>
      </trkpt>
      <trkpt lat="45.59184" lon="6.1311">
        <ele>959</ele>
        <time>2012-01-24T15:59:40.000Z</time>
      </trkpt>
      <trkpt lat="45.5919" lon="6.13148">
        <ele>952.20001220703</ele>
        <time>2012-01-24T15:59:43.000Z</time>
      </trkpt>
      <trkpt lat="45.59195" lon="6.13171">
        <ele>948.40002441406</ele>
        <time>2012-01-24T15:59:45.000Z</time>
      </trkpt>
      <trkpt lat="45.59209" lon="6.1318">
        <ele>945.40002441406</ele>
        <time>2012-01-24T15:59:47.000Z</time>
      </trkpt>
      <trkpt lat="45.59217" lon="6.13181">
        <ele>944</ele>
        <time>2012-01-24T15:59:48.000Z</time>
      </trkpt>
      <trkpt lat="45.59233" lon="6.13182">
        <ele>941.20001220703</ele>
        <time>2012-01-24T15:59:50.000Z</time>
      </trkpt>
      <trkpt lat="45.59248" lon="6.13181">
        <ele>939.20001220703</ele>
        <time>2012-01-24T15:59:52.000Z</time>
      </trkpt>
      <trkpt lat="45.59259" lon="6.13195">
        <ele>935.79998779297</ele>
        <time>2012-01-24T15:59:55.000Z</time>
      </trkpt>
      <trkpt lat="45.59278" lon="6.1321">
        <ele>932</ele>
        <time>2012-01-24T15:59:59.000Z</time>
      </trkpt>
      <trkpt lat="45.59291" lon="6.13227">
        <ele>928.59997558594</ele>
        <time>2012-01-24T16:00:02.000Z</time>
      </trkpt>
      <trkpt lat="45.59299" lon="6.13244">
        <ele>924.79998779297</ele>
        <time>2012-01-24T16:00:04.000Z</time>
      </trkpt>
      <trkpt lat="45.59312" lon="6.1329">
        <ele>916.20001220703</ele>
        <time>2012-01-24T16:00:08.000Z</time>
      </trkpt>
      <trkpt lat="45.59302" lon="6.13299">
        <ele>913.79998779297</ele>
        <time>2012-01-24T16:00:10.000Z</time>
      </trkpt>
      <trkpt lat="45.593" lon="6.13305">
        <ele>912.40002441406</ele>
        <time>2012-01-24T16:00:13.000Z</time>
      </trkpt>
      <trkpt lat="45.59301" lon="6.13309">
        <ele>911.79998779297</ele>
        <time>2012-01-24T16:00:14.000Z</time>
      </trkpt>
      <trkpt lat="45.59299" lon="6.13324">
        <ele>910</ele>
        <time>2012-01-24T16:00:19.000Z</time>
      </trkpt>
      <trkpt lat="45.59298" lon="6.13324">
        <ele>910.40002441406</ele>
        <time>2012-01-24T16:00:20.000Z</time>
      </trkpt>
      <trkpt lat="45.59297" lon="6.13324">
        <ele>910.40002441406</ele>
        <time>2012-01-24T16:00:22.000Z</time>
      </trkpt>
      <trkpt lat="45.59285" lon="6.13327">
        <ele>907.59997558594</ele>
        <time>2012-01-24T16:00:28.000Z</time>
      </trkpt>
      <trkpt lat="45.59276" lon="6.1335">
        <ele>904.20001220703</ele>
        <time>2012-01-24T16:00:32.000Z</time>
      </trkpt>
      <trkpt lat="45.59271" lon="6.13398">
        <ele>897.40002441406</ele>
        <time>2012-01-24T16:00:38.000Z</time>
      </trkpt>
      <trkpt lat="45.59272" lon="6.13444">
        <ele>891.20001220703</ele>
        <time>2012-01-24T16:00:44.000Z</time>
      </trkpt>
      <trkpt lat="45.59278" lon="6.13464">
        <ele>889.20001220703</ele>
        <time>2012-01-24T16:00:48.000Z</time>
      </trkpt>
      <trkpt lat="45.59284" lon="6.13477">
        <ele>888.79998779297</ele>
        <time>2012-01-24T16:00:53.000Z</time>
      </trkpt>
      <trkpt lat="45.59285" lon="6.13481">
        <ele>888.20001220703</ele>
        <time>2012-01-24T16:00:54.000Z</time>
      </trkpt>
      <trkpt lat="45.59295" lon="6.13516">
        <ele>883.40002441406</ele>
        <time>2012-01-24T16:00:59.000Z</time>
      </trkpt>
      <trkpt lat="45.59312" lon="6.1355">
        <ele>877.20001220703</ele>
        <time>2012-01-24T16:01:03.000Z</time>
      </trkpt>
      <trkpt lat="45.59348" lon="6.13588">
        <ele>869</ele>
        <time>2012-01-24T16:01:08.000Z</time>
      </trkpt>
      <trkpt lat="45.59386" lon="6.13616">
        <ele>864.20001220703</ele>
        <time>2012-01-24T16:01:13.000Z</time>
      </trkpt>
      <trkpt lat="45.59398" lon="6.13625">
        <ele>862.79998779297</ele>
        <time>2012-01-24T16:01:15.000Z</time>
      </trkpt>
      <trkpt lat="45.59414" lon="6.13634">
        <ele>860.79998779297</ele>
        <time>2012-01-24T16:01:18.000Z</time>
      </trkpt>
      <trkpt lat="45.59419" lon="6.13637">
        <ele>860</ele>
        <time>2012-01-24T16:01:19.000Z</time>
      </trkpt>
    </trkseg>
  </trk>
</gpx>